Wetterdaten: Samstag, 14.03.2026
Datum Zeit Temp. Aussen Temp. o. S. Temp +5cm Feuchte Auss Luftdruck Regen Sonnenschein Solar Windböen Empfang
14.03.2026 00:00 4,8 °C 3,9 °C 0,6 °C 96 % 1001,5 hPa 0,0 l/m² 0 min 0 W/m² 6,4 km/h (2 Bft) 97,87 %
14.03.2026 00:02 4,8 °C 3,9 °C 0,6 °C 96 % 1001,5 hPa 0,0 l/m² 0 min 0 W/m² 6,4 km/h (2 Bft) 100,00 %
14.03.2026 00:04 4,8 °C 3,9 °C 0,6 °C 96 % 1001,4 hPa 0,0 l/m² 0 min 0 W/m² 6,4 km/h (2 Bft) 100,00 %
14.03.2026 00:07 4,8 °C 3,9 °C 0,6 °C 96 % 1001,4 hPa 0,0 l/m² 0 min 0 W/m² 3,2 km/h (1 Bft) 100,00 %
14.03.2026 00:08 4,8 °C 3,9 °C 0,6 °C 96 % 1001,4 hPa 0,0 l/m² 0 min 0 W/m² 6,4 km/h (2 Bft) 100,00 %
14.03.2026 00:14 4,8 °C 3,9 °C 0,6 °C 96 % 1001,3 hPa 0,0 l/m² 0 min 0 W/m² 6,4 km/h (2 Bft) 96,67 %
14.03.2026 00:16 4,8 °C 3,9 °C 0,6 °C 96 % 1001,3 hPa 0,0 l/m² 0 min 0 W/m² 6,4 km/h (2 Bft) 97,83 %
14.03.2026 00:18 4,7 °C 3,9 °C 0,6 °C 96 % 1001,3 hPa 0,0 l/m² 0 min 0 W/m² 3,2 km/h (1 Bft) 100,00 %
14.03.2026 00:20 4,7 °C 3,9 °C 0,6 °C 96 % 1001,3 hPa 0,0 l/m² 0 min 0 W/m² 6,4 km/h (2 Bft) 100,00 %
14.03.2026 00:22 4,7 °C 3,9 °C 0,6 °C 96 % 1001,2 hPa 0,0 l/m² 0 min 0 W/m² 3,2 km/h (1 Bft) 100,00 %
14.03.2026 00:24 4,7 °C 3,9 °C 0,6 °C 96 % 1001,2 hPa 0,0 l/m² 0 min 0 W/m² 6,4 km/h (2 Bft) 97,87 %
14.03.2026 00:26 4,7 °C 3,9 °C 0,6 °C 96 % 1001,2 hPa 0,0 l/m² 0 min 0 W/m² 6,4 km/h (2 Bft) 95,74 %
14.03.2026 00:28 4,7 °C 3,9 °C 0,6 °C 96 % 1001,2 hPa 0,0 l/m² 0 min 0 W/m² 3,2 km/h (1 Bft) 97,83 %
14.03.2026 00:30 4,7 °C 3,9 °C 0,6 °C 96 % 1001,2 hPa 0,0 l/m² 0 min 0 W/m² 6,4 km/h (2 Bft) 97,87 %
14.03.2026 00:32 4,7 °C 3,9 °C 0,6 °C 96 % 1001,1 hPa 0,0 l/m² 0 min 0 W/m² 6,4 km/h (2 Bft) 95,74 %
14.03.2026 00:34 4,7 °C 3,9 °C 0,6 °C 96 % 1001,1 hPa 0,0 l/m² 0 min 0 W/m² 3,2 km/h (1 Bft) 53,33 %
14.03.2026 00:36 4,7 °C 3,9 °C 0,6 °C 96 % 1001,0 hPa 0,0 l/m² 0 min 0 W/m² 3,2 km/h (1 Bft) 97,87 %
14.03.2026 00:38 4,7 °C 3,9 °C 0,6 °C 96 % 1000,9 hPa 0,0 l/m² 0 min 0 W/m² 3,2 km/h (1 Bft) 97,87 %
14.03.2026 00:40 4,7 °C 3,9 °C 0,6 °C 96 % 1000,9 hPa 0,0 l/m² 0 min 0 W/m² 3,2 km/h (1 Bft) 97,83 %
14.03.2026 00:42 4,7 °C 3,9 °C 0,6 °C 96 % 1000,9 hPa 0,0 l/m² 0 min 0 W/m² 6,4 km/h (2 Bft) 97,87 %
14.03.2026 00:44 4,7 °C 3,9 °C 0,6 °C 96 % 1000,9 hPa 0,0 l/m² 0 min 0 W/m² 3,2 km/h (1 Bft) 97,87 %
14.03.2026 00:46 4,6 °C 3,9 °C 0,6 °C 96 % 1000,9 hPa 0,0 l/m² 0 min 0 W/m² 3,2 km/h (1 Bft) 97,87 %
14.03.2026 00:48 4,6 °C 3,9 °C 0,6 °C 96 % 1000,9 hPa 0,0 l/m² 0 min 0 W/m² 12,9 km/h (3 Bft) 95,74 %
14.03.2026 00:50 4,6 °C 3,9 °C 0,6 °C 96 % 1000,9 hPa 0,0 l/m² 0 min 0 W/m² 12,9 km/h (3 Bft) 93,62 %
14.03.2026 00:52 4,6 °C 3,9 °C 0,6 °C 96 % 1000,9 hPa 0,0 l/m² 0 min 0 W/m² 12,9 km/h (3 Bft) 95,65 %
14.03.2026 00:54 4,6 °C 3,9 °C 0,6 °C 96 % 1000,9 hPa 0,0 l/m² 0 min 0 W/m² 3,2 km/h (1 Bft) 97,87 %
14.03.2026 00:56 4,6 °C 3,9 °C 0,6 °C 96 % 1000,9 hPa 0,0 l/m² 0 min 0 W/m² 12,9 km/h (3 Bft) 93,62 %
14.03.2026 00:58 4,6 °C 3,9 °C 0,6 °C 96 % 1000,9 hPa 0,0 l/m² 0 min 0 W/m² 6,4 km/h (2 Bft) 97,87 %
14.03.2026 01:00 4,6 °C 3,9 °C 0,6 °C 96 % 1000,8 hPa 0,0 l/m² 0 min 0 W/m² 12,9 km/h (3 Bft) 100,00 %
14.03.2026 01:02 4,6 °C 3,9 °C 0,6 °C 96 % 1000,7 hPa 0,0 l/m² 0 min 0 W/m² 6,4 km/h (2 Bft) 97,87 %
14.03.2026 01:04 4,6 °C 3,9 °C 0,6 °C 96 % 1000,7 hPa 0,0 l/m² 0 min 0 W/m² 6,4 km/h (2 Bft) 100,00 %
14.03.2026 01:06 4,6 °C 3,9 °C 0,6 °C 96 % 1000,8 hPa 0,2 l/m² 0 min 0 W/m² 9,7 km/h (2 Bft) 97,87 %
14.03.2026 01:08 4,5 °C 3,9 °C 0,6 °C 96 % 1000,8 hPa 0,0 l/m² 0 min 0 W/m² 6,4 km/h (2 Bft) 100,00 %
14.03.2026 01:10 4,5 °C 3,9 °C 0,6 °C 96 % 1000,8 hPa 0,0 l/m² 0 min 0 W/m² 6,4 km/h (2 Bft) 100,00 %
14.03.2026 01:12 4,5 °C 3,9 °C 0,6 °C 96 % 1000,7 hPa 0,0 l/m² 0 min 0 W/m² 6,4 km/h (2 Bft) 100,00 %
14.03.2026 01:14 4,5 °C 3,9 °C 0,6 °C 96 % 1000,7 hPa 0,0 l/m² 0 min 0 W/m² 6,4 km/h (2 Bft) 100,00 %
14.03.2026 01:16 4,5 °C 3,9 °C 0,6 °C 96 % 1000,8 hPa 0,0 l/m² 0 min 0 W/m² 6,4 km/h (2 Bft) 97,87 %
14.03.2026 01:18 4,5 °C 3,9 °C 0,6 °C 96 % 1000,8 hPa 0,0 l/m² 0 min 0 W/m² 3,2 km/h (1 Bft) 97,87 %
14.03.2026 01:20 4,4 °C 3,9 °C 0,6 °C 96 % 1000,8 hPa 0,0 l/m² 0 min 0 W/m² 9,7 km/h (2 Bft) 93,62 %
14.03.2026 01:22 4,4 °C 3,9 °C 0,6 °C 96 % 1000,8 hPa 0,0 l/m² 0 min 0 W/m² 6,4 km/h (2 Bft) 95,74 %
14.03.2026 01:24 4,4 °C 3,9 °C 0,6 °C 96 % 1000,8 hPa 0,0 l/m² 0 min 0 W/m² 12,9 km/h (3 Bft) 95,74 %
14.03.2026 01:26 4,4 °C 3,9 °C 0,6 °C 96 % 1000,8 hPa 0,0 l/m² 0 min 0 W/m² 6,4 km/h (2 Bft) 95,65 %
14.03.2026 01:28 4,4 °C 3,9 °C 0,6 °C 96 % 1000,8 hPa 0,0 l/m² 0 min 0 W/m² 12,9 km/h (3 Bft) 95,74 %
14.03.2026 01:30 4,4 °C 3,9 °C 0,6 °C 96 % 1000,8 hPa 0,0 l/m² 0 min 0 W/m² 6,4 km/h (2 Bft) 95,74 %
14.03.2026 01:32 4,4 °C 3,9 °C 0,6 °C 96 % 1000,8 hPa 0,0 l/m² 0 min 0 W/m² 6,4 km/h (2 Bft) 95,74 %
14.03.2026 01:34 4,4 °C 3,9 °C 0,6 °C 96 % 1000,8 hPa 0,0 l/m² 0 min 0 W/m² 6,4 km/h (2 Bft) 95,74 %
14.03.2026 01:36 4,4 °C 3,9 °C 0,6 °C 96 % 1000,8 hPa 0,0 l/m² 0 min 0 W/m² 12,9 km/h (3 Bft) 95,74 %
14.03.2026 01:38 4,4 °C 3,9 °C 0,6 °C 96 % 1000,8 hPa 0,0 l/m² 0 min 0 W/m² 6,4 km/h (2 Bft) 91,30 %
14.03.2026 01:40 4,4 °C 3,9 °C 0,6 °C 96 % 1000,8 hPa 0,0 l/m² 0 min 0 W/m² 3,2 km/h (1 Bft) 95,74 %
14.03.2026 01:42 4,4 °C 3,9 °C 0,6 °C 96 % 1000,8 hPa 0,0 l/m² 0 min 0 W/m² 3,2 km/h (1 Bft) 93,62 %
14.03.2026 01:44 4,4 °C 3,9 °C 0,6 °C 96 % 1000,6 hPa 0,0 l/m² 0 min 0 W/m² 16,1 km/h (3 Bft) 93,62 %
14.03.2026 01:46 4,3 °C 3,9 °C 0,6 °C 96 % 1000,5 hPa 0,0 l/m² 0 min 0 W/m² 9,7 km/h (2 Bft) 89,36 %
14.03.2026 01:48 4,3 °C 3,9 °C 0,6 °C 96 % 1000,5 hPa 0,0 l/m² 0 min 0 W/m² 3,2 km/h (1 Bft) 95,74 %
14.03.2026 01:50 4,3 °C 3,9 °C 0,6 °C 96 % 1000,5 hPa 0,0 l/m² 0 min 0 W/m² 12,9 km/h (3 Bft) 97,83 %
14.03.2026 01:52 4,3 °C 3,9 °C 0,0 °C 96 % 1000,5 hPa 0,0 l/m² 0 min 0 W/m² 6,4 km/h (2 Bft) 97,87 %
14.03.2026 01:54 4,3 °C 3,3 °C 0,6 °C 96 % 1000,5 hPa 0,0 l/m² 0 min 0 W/m² 6,4 km/h (2 Bft) 97,87 %
14.03.2026 01:56 4,3 °C 3,3 °C 0,6 °C 96 % 1000,4 hPa 0,0 l/m² 0 min 0 W/m² 6,4 km/h (2 Bft) 95,74 %
14.03.2026 01:58 4,3 °C 3,3 °C 0,6 °C 96 % 1000,5 hPa 0,0 l/m² 0 min 0 W/m² 6,4 km/h (2 Bft) 97,87 %
14.03.2026 02:00 4,3 °C 3,3 °C 0,6 °C 96 % 1000,4 hPa 0,0 l/m² 0 min 0 W/m² 6,4 km/h (2 Bft) 97,83 %
14.03.2026 02:02 4,3 °C 3,3 °C 0,6 °C 97 % 1000,5 hPa 0,0 l/m² 0 min 0 W/m² 6,4 km/h (2 Bft) 97,87 %
14.03.2026 02:04 4,3 °C 3,3 °C 0,6 °C 97 % 1000,5 hPa 0,0 l/m² 0 min 0 W/m² 6,4 km/h (2 Bft) 95,24 %
14.03.2026 02:06 4,3 °C 3,3 °C 0,6 °C 97 % 1000,5 hPa 0,0 l/m² 0 min 0 W/m² 6,4 km/h (2 Bft) 94,23 %
14.03.2026 02:08 4,3 °C 3,3 °C 0,6 °C 97 % 1000,5 hPa 0,0 l/m² 0 min 0 W/m² 6,4 km/h (2 Bft) 97,92 %
14.03.2026 02:10 4,3 °C 3,3 °C 0,6 °C 97 % 1000,5 hPa 0,2 l/m² 0 min 0 W/m² 0,0 km/h (0 Bft) 95,74 %
14.03.2026 02:18 4,2 °C 3,3 °C 0,0 °C 97 % 1000,5 hPa 0,0 l/m² 0 min 0 W/m² 6,4 km/h (2 Bft) 100,00 %
14.03.2026 02:20 4,2 °C 3,3 °C 0,0 °C 97 % 1000,5 hPa 0,0 l/m² 0 min 0 W/m² 0,0 km/h (0 Bft) 95,65 %
14.03.2026 02:22 4,2 °C 3,3 °C 0,0 °C 97 % 1000,5 hPa 0,0 l/m² 0 min 0 W/m² 9,7 km/h (2 Bft) 91,49 %
14.03.2026 02:24 4,2 °C 3,3 °C 0,0 °C 97 % 1000,5 hPa 0,0 l/m² 0 min 0 W/m² 6,4 km/h (2 Bft) 97,87 %
14.03.2026 02:26 4,2 °C 3,3 °C 0,0 °C 97 % 1000,5 hPa 0,0 l/m² 0 min 0 W/m² 6,4 km/h (2 Bft) 95,74 %
14.03.2026 02:28 4,2 °C 3,3 °C 0,0 °C 97 % 1000,4 hPa 0,0 l/m² 0 min 0 W/m² 3,2 km/h (1 Bft) 97,87 %
14.03.2026 02:30 4,2 °C 3,3 °C 0,6 °C 97 % 1000,3 hPa 0,0 l/m² 0 min 0 W/m² 9,7 km/h (2 Bft) 100,00 %
14.03.2026 02:32 4,2 °C 3,3 °C 0,0 °C 96 % 1000,3 hPa 0,0 l/m² 0 min 0 W/m² 12,9 km/h (3 Bft) 97,83 %
14.03.2026 02:34 4,2 °C 3,3 °C 0,0 °C 96 % 1000,3 hPa 0,0 l/m² 0 min 0 W/m² 9,7 km/h (2 Bft) 100,00 %
14.03.2026 02:36 4,1 °C 3,3 °C 0,0 °C 96 % 1000,3 hPa 0,0 l/m² 0 min 0 W/m² 12,9 km/h (3 Bft) 100,00 %
14.03.2026 02:38 4,1 °C 3,3 °C 0,0 °C 96 % 1000,4 hPa 0,0 l/m² 0 min 0 W/m² 3,2 km/h (1 Bft) 95,74 %
14.03.2026 02:40 4,1 °C 3,3 °C 0,0 °C 96 % 1000,4 hPa 0,0 l/m² 0 min 0 W/m² 9,7 km/h (2 Bft) 97,87 %
14.03.2026 02:42 4,1 °C 3,3 °C 0,0 °C 96 % 1000,4 hPa 0,0 l/m² 0 min 0 W/m² 3,2 km/h (1 Bft) 95,65 %
14.03.2026 02:44 4,1 °C 3,3 °C 0,0 °C 96 % 1000,4 hPa 0,0 l/m² 0 min 0 W/m² 3,2 km/h (1 Bft) 97,87 %
14.03.2026 02:46 4,1 °C 3,3 °C 0,0 °C 96 % 1000,4 hPa 0,0 l/m² 0 min 0 W/m² 3,2 km/h (1 Bft) 97,87 %
14.03.2026 02:48 4,1 °C 3,3 °C 0,6 °C 96 % 1000,4 hPa 0,0 l/m² 0 min 0 W/m² 6,4 km/h (2 Bft) 97,87 %
14.03.2026 02:50 4,1 °C 3,3 °C 0,6 °C 96 % 1000,3 hPa 0,0 l/m² 0 min 0 W/m² 6,4 km/h (2 Bft) 97,87 %
14.03.2026 02:52 4,1 °C 3,3 °C 0,6 °C 96 % 1000,3 hPa 0,0 l/m² 0 min 0 W/m² 6,4 km/h (2 Bft) 95,74 %
14.03.2026 02:54 4,1 °C 3,3 °C 0,6 °C 96 % 1000,3 hPa 0,0 l/m² 0 min 0 W/m² 3,2 km/h (1 Bft) 95,65 %
14.03.2026 02:56 4,1 °C 3,3 °C 0,6 °C 97 % 1000,2 hPa 0,0 l/m² 0 min 0 W/m² 9,7 km/h (2 Bft) 97,87 %
14.03.2026 02:58 4,1 °C 3,3 °C 0,6 °C 97 % 1000,3 hPa 0,0 l/m² 0 min 0 W/m² 6,4 km/h (2 Bft) 97,87 %
14.03.2026 03:00 4,1 °C 3,3 °C 0,0 °C 97 % 1000,3 hPa 0,0 l/m² 0 min 0 W/m² 9,7 km/h (2 Bft) 91,49 %
14.03.2026 03:02 4,1 °C 3,3 °C 0,0 °C 97 % 1000,3 hPa 0,2 l/m² 0 min 0 W/m² 9,7 km/h (2 Bft) 97,87 %
14.03.2026 03:04 4,1 °C 3,3 °C 0,0 °C 97 % 1000,3 hPa 0,0 l/m² 0 min 0 W/m² 6,4 km/h (2 Bft) 97,92 %
14.03.2026 03:06 4,1 °C 3,3 °C 0,0 °C 97 % 1000,2 hPa 0,0 l/m² 0 min 0 W/m² 3,2 km/h (1 Bft) 95,74 %
14.03.2026 03:08 4,1 °C 3,3 °C 0,0 °C 97 % 1000,1 hPa 0,0 l/m² 0 min 0 W/m² 6,4 km/h (2 Bft) 93,62 %
14.03.2026 03:10 4,1 °C 3,3 °C 0,6 °C 97 % 1000,1 hPa 0,0 l/m² 0 min 0 W/m² 6,4 km/h (2 Bft) 95,74 %
14.03.2026 03:12 4,1 °C 3,3 °C 0,6 °C 97 % 1000,1 hPa 0,0 l/m² 0 min 0 W/m² 6,4 km/h (2 Bft) 93,48 %
14.03.2026 03:14 4,1 °C 3,3 °C 0,6 °C 97 % 1000,0 hPa 0,0 l/m² 0 min 0 W/m² 3,2 km/h (1 Bft) 97,87 %
14.03.2026 03:16 4,1 °C 3,3 °C 0,6 °C 97 % 1000,1 hPa 0,0 l/m² 0 min 0 W/m² 6,4 km/h (2 Bft) 97,87 %
14.03.2026 03:18 4,1 °C 3,3 °C 0,6 °C 97 % 1000,1 hPa 0,0 l/m² 0 min 0 W/m² 6,4 km/h (2 Bft) 95,74 %
14.03.2026 03:20 4,1 °C 3,3 °C 0,0 °C 97 % 1000,1 hPa 0,0 l/m² 0 min 0 W/m² 6,4 km/h (2 Bft) 97,87 %
14.03.2026 03:22 4,1 °C 3,3 °C 0,0 °C 97 % 1000,1 hPa 0,0 l/m² 0 min 0 W/m² 3,2 km/h (1 Bft) 97,87 %
14.03.2026 03:24 4,1 °C 3,3 °C 0,0 °C 97 % 1000,1 hPa 0,0 l/m² 0 min 0 W/m² 6,4 km/h (2 Bft) 95,65 %
14.03.2026 03:26 4,1 °C 3,3 °C 0,0 °C 97 % 1000,1 hPa 0,0 l/m² 0 min 0 W/m² 6,4 km/h (2 Bft) 95,74 %
14.03.2026 03:28 4,1 °C 3,3 °C 0,0 °C 97 % 1000,1 hPa 0,2 l/m² 0 min 0 W/m² 3,2 km/h (1 Bft) 97,87 %
14.03.2026 03:30 4,1 °C 3,3 °C 0,0 °C 97 % 1000,1 hPa 0,0 l/m² 0 min 0 W/m² 0,0 km/h (0 Bft) 72,34 %
14.03.2026 03:32 4,1 °C 3,3 °C 0,0 °C 97 % 1000,0 hPa 0,0 l/m² 0 min 0 W/m² 3,2 km/h (1 Bft) 76,74 %
14.03.2026 03:34 4,1 °C 3,3 °C 0,0 °C 97 % 1000,0 hPa 0,0 l/m² 0 min 0 W/m² 3,2 km/h (1 Bft) 97,87 %
14.03.2026 03:36 4,1 °C 3,3 °C 0,0 °C 97 % 1000,0 hPa 0,0 l/m² 0 min 0 W/m² 3,2 km/h (1 Bft) 100,00 %
14.03.2026 03:38 4,1 °C 3,3 °C 0,6 °C 97 % 1000,0 hPa 0,0 l/m² 0 min 0 W/m² 0,0 km/h (0 Bft) 100,00 %
14.03.2026 03:40 4,1 °C 3,3 °C 0,6 °C 97 % 999,9 hPa 0,0 l/m² 0 min 0 W/m² 3,2 km/h (1 Bft) 97,87 %
14.03.2026 03:42 4,1 °C 3,3 °C 0,0 °C 97 % 999,9 hPa 0,0 l/m² 0 min 0 W/m² 3,2 km/h (1 Bft) 100,00 %
14.03.2026 03:44 4,1 °C 3,3 °C 0,6 °C 97 % 999,9 hPa 0,0 l/m² 0 min 0 W/m² 3,2 km/h (1 Bft) 100,00 %
14.03.2026 03:46 4,1 °C 3,3 °C 0,0 °C 97 % 999,9 hPa 0,0 l/m² 0 min 0 W/m² 6,4 km/h (2 Bft) 100,00 %
14.03.2026 03:48 4,1 °C 3,3 °C 0,0 °C 97 % 999,9 hPa 0,0 l/m² 0 min 0 W/m² 3,2 km/h (1 Bft) 100,00 %
14.03.2026 03:50 4,1 °C 3,3 °C 0,0 °C 97 % 999,8 hPa 0,0 l/m² 0 min 0 W/m² 3,2 km/h (1 Bft) 100,00 %
14.03.2026 03:52 4,1 °C 3,3 °C 0,0 °C 97 % 999,8 hPa 0,0 l/m² 0 min 0 W/m² 6,4 km/h (2 Bft) 100,00 %
14.03.2026 03:54 4,1 °C 3,3 °C 0,0 °C 97 % 999,8 hPa 0,0 l/m² 0 min 0 W/m² 3,2 km/h (1 Bft) 100,00 %
14.03.2026 03:56 4,1 °C 3,3 °C 0,6 °C 97 % 999,9 hPa 0,0 l/m² 0 min 0 W/m² 3,2 km/h (1 Bft) 97,87 %
14.03.2026 03:58 4,1 °C 3,3 °C 0,0 °C 97 % 999,9 hPa 0,0 l/m² 0 min 0 W/m² 6,4 km/h (2 Bft) 100,00 %
14.03.2026 04:00 4,1 °C 3,3 °C 0,0 °C 97 % 999,9 hPa 0,2 l/m² 0 min 0 W/m² 6,4 km/h (2 Bft) 97,83 %
14.03.2026 04:02 4,1 °C 3,3 °C 0,0 °C 97 % 999,9 hPa 0,0 l/m² 0 min 0 W/m² 3,2 km/h (1 Bft) 100,00 %
14.03.2026 04:04 4,1 °C 3,3 °C 0,0 °C 97 % 999,9 hPa 0,0 l/m² 0 min 0 W/m² 3,2 km/h (1 Bft) 97,87 %
14.03.2026 04:06 4,1 °C 3,3 °C 0,6 °C 97 % 999,8 hPa 0,0 l/m² 0 min 0 W/m² 3,2 km/h (1 Bft) 97,87 %
14.03.2026 04:08 4,1 °C 3,3 °C 0,6 °C 97 % 999,7 hPa 0,0 l/m² 0 min 0 W/m² 3,2 km/h (1 Bft) 100,00 %
14.03.2026 04:10 4,1 °C 3,3 °C 0,6 °C 97 % 999,7 hPa 0,0 l/m² 0 min 0 W/m² 3,2 km/h (1 Bft) 100,00 %
14.03.2026 04:12 4,1 °C 3,3 °C 0,6 °C 97 % 999,7 hPa 0,2 l/m² 0 min 0 W/m² 0,0 km/h (0 Bft) 97,83 %
14.03.2026 04:14 4,1 °C 3,3 °C 0,6 °C 97 % 999,8 hPa 0,0 l/m² 0 min 0 W/m² 0,0 km/h (0 Bft) 100,00 %
14.03.2026 04:16 4,1 °C 3,3 °C 0,6 °C 97 % 999,8 hPa 0,0 l/m² 0 min 0 W/m² 3,2 km/h (1 Bft) 100,00 %
14.03.2026 04:18 4,1 °C 3,3 °C 0,6 °C 97 % 999,8 hPa 0,0 l/m² 0 min 0 W/m² 3,2 km/h (1 Bft) 100,00 %
14.03.2026 04:20 4,1 °C 3,3 °C 0,6 °C 97 % 999,8 hPa 0,0 l/m² 0 min 0 W/m² 3,2 km/h (1 Bft) 100,00 %
14.03.2026 04:22 4,1 °C 3,3 °C 0,6 °C 97 % 999,8 hPa 0,0 l/m² 0 min 0 W/m² 3,2 km/h (1 Bft) 97,83 %
14.03.2026 04:24 4,1 °C 3,3 °C 0,6 °C 97 % 999,8 hPa 0,0 l/m² 0 min 0 W/m² 3,2 km/h (1 Bft) 100,00 %
14.03.2026 04:26 4,1 °C 3,3 °C 0,6 °C 97 % 999,8 hPa 0,0 l/m² 0 min 0 W/m² 3,2 km/h (1 Bft) 95,74 %
14.03.2026 04:28 4,1 °C 3,3 °C 0,6 °C 97 % 999,9 hPa 0,0 l/m² 0 min 0 W/m² 3,2 km/h (1 Bft) 100,00 %
14.03.2026 04:30 4,1 °C 3,3 °C 0,6 °C 97 % 999,8 hPa 0,2 l/m² 0 min 0 W/m² 6,4 km/h (2 Bft) 95,74 %
14.03.2026 04:32 4,1 °C 3,3 °C 0,6 °C 97 % 999,8 hPa 0,0 l/m² 0 min 0 W/m² 3,2 km/h (1 Bft) 95,74 %
14.03.2026 04:34 4,1 °C 3,3 °C 0,6 °C 97 % 999,9 hPa 0,0 l/m² 0 min 0 W/m² 12,9 km/h (3 Bft) 95,65 %
14.03.2026 04:36 4,1 °C 3,3 °C 0,0 °C 97 % 999,9 hPa 0,0 l/m² 0 min 0 W/m² 3,2 km/h (1 Bft) 97,87 %
14.03.2026 04:38 4,1 °C 3,3 °C 0,0 °C 97 % 999,9 hPa 0,0 l/m² 0 min 0 W/m² 3,2 km/h (1 Bft) 97,87 %
14.03.2026 04:40 4,1 °C 3,3 °C 0,0 °C 97 % 999,8 hPa 0,0 l/m² 0 min 0 W/m² 6,4 km/h (2 Bft) 97,87 %
14.03.2026 04:42 4,1 °C 3,3 °C 0,0 °C 97 % 999,8 hPa 0,0 l/m² 0 min 0 W/m² 3,2 km/h (1 Bft) 97,87 %
14.03.2026 04:44 4,1 °C 3,3 °C 0,0 °C 97 % 999,7 hPa 0,0 l/m² 0 min 0 W/m² 6,4 km/h (2 Bft) 95,74 %
14.03.2026 04:46 4,1 °C 3,3 °C 0,0 °C 97 % 999,7 hPa 0,0 l/m² 0 min 0 W/m² 6,4 km/h (2 Bft) 97,83 %
14.03.2026 04:48 4,1 °C 3,3 °C 0,0 °C 97 % 999,7 hPa 0,2 l/m² 0 min 0 W/m² 3,2 km/h (1 Bft) 95,74 %
14.03.2026 04:50 4,0 °C 3,3 °C 0,0 °C 97 % 999,8 hPa 0,0 l/m² 0 min 0 W/m² 12,9 km/h (3 Bft) 93,62 %
14.03.2026 04:52 4,0 °C 3,3 °C 0,0 °C 97 % 999,8 hPa 0,0 l/m² 0 min 0 W/m² 12,9 km/h (3 Bft) 95,74 %
14.03.2026 04:54 4,0 °C 3,3 °C 0,0 °C 97 % 999,8 hPa 0,0 l/m² 0 min 0 W/m² 12,9 km/h (3 Bft) 91,49 %
14.03.2026 04:56 3,9 °C 3,3 °C 0,0 °C 97 % 999,8 hPa 0,0 l/m² 0 min 0 W/m² 3,2 km/h (1 Bft) 91,49 %
14.03.2026 04:58 3,9 °C 3,3 °C 0,0 °C 97 % 999,8 hPa 0,0 l/m² 0 min 0 W/m² 3,2 km/h (1 Bft) 93,48 %
14.03.2026 05:00 3,9 °C 3,3 °C 0,0 °C 97 % 999,9 hPa 0,0 l/m² 0 min 0 W/m² 3,2 km/h (1 Bft) 91,49 %
14.03.2026 05:02 3,9 °C 3,3 °C 0,0 °C 97 % 999,9 hPa 0,0 l/m² 0 min 0 W/m² 6,4 km/h (2 Bft) 91,49 %
14.03.2026 05:04 3,9 °C 3,3 °C 0,0 °C 97 % 999,9 hPa 0,0 l/m² 0 min 0 W/m² 6,4 km/h (2 Bft) 93,62 %
14.03.2026 05:06 3,9 °C 3,3 °C 0,0 °C 97 % 999,9 hPa 0,0 l/m² 0 min 0 W/m² 6,4 km/h (2 Bft) 89,36 %
14.03.2026 05:08 3,9 °C 3,3 °C 0,0 °C 97 % 999,9 hPa 0,0 l/m² 0 min 0 W/m² 6,4 km/h (2 Bft) 93,75 %
14.03.2026 05:10 3,9 °C 3,3 °C 0,0 °C 97 % 999,9 hPa 0,0 l/m² 0 min 0 W/m² 3,2 km/h (1 Bft) 93,48 %
14.03.2026 05:12 3,9 °C 3,3 °C 0,0 °C 97 % 999,9 hPa 0,0 l/m² 0 min 0 W/m² 6,4 km/h (2 Bft) 91,49 %
14.03.2026 05:14 3,9 °C 3,3 °C 0,0 °C 97 % 999,9 hPa 0,0 l/m² 0 min 0 W/m² 6,4 km/h (2 Bft) 93,62 %
14.03.2026 05:16 3,9 °C 3,3 °C 0,0 °C 97 % 999,8 hPa 0,0 l/m² 0 min 0 W/m² 6,4 km/h (2 Bft) 91,49 %
14.03.2026 05:18 3,9 °C 3,3 °C 0,0 °C 97 % 999,8 hPa 0,0 l/m² 0 min 0 W/m² 6,4 km/h (2 Bft) 91,49 %
14.03.2026 05:20 3,8 °C 3,3 °C 0,0 °C 97 % 999,7 hPa 0,2 l/m² 0 min 0 W/m² 6,4 km/h (2 Bft) 95,74 %
14.03.2026 05:22 3,8 °C 3,3 °C 0,0 °C 97 % 999,7 hPa 0,0 l/m² 0 min 0 W/m² 3,2 km/h (1 Bft) 93,48 %
14.03.2026 05:24 3,8 °C 3,3 °C 0,0 °C 97 % 999,7 hPa 0,0 l/m² 0 min 0 W/m² 3,2 km/h (1 Bft) 95,74 %
14.03.2026 05:26 3,8 °C 3,3 °C 0,0 °C 97 % 999,6 hPa 0,0 l/m² 0 min 0 W/m² 6,4 km/h (2 Bft) 95,74 %
14.03.2026 05:28 3,8 °C 3,3 °C 0,0 °C 97 % 999,6 hPa 0,0 l/m² 0 min 0 W/m² 3,2 km/h (1 Bft) 97,87 %
14.03.2026 05:30 3,8 °C 3,3 °C 0,0 °C 97 % 999,7 hPa 0,0 l/m² 0 min 0 W/m² 3,2 km/h (1 Bft) 97,87 %
14.03.2026 05:32 3,8 °C 3,3 °C 0,0 °C 97 % 999,7 hPa 0,0 l/m² 0 min 0 W/m² 3,2 km/h (1 Bft) 100,00 %
14.03.2026 05:34 3,8 °C 3,3 °C 0,0 °C 97 % 999,7 hPa 0,0 l/m² 0 min 0 W/m² 6,4 km/h (2 Bft) 100,00 %
14.03.2026 05:36 3,8 °C 3,3 °C 0,0 °C 97 % 999,6 hPa 0,0 l/m² 0 min 0 W/m² 3,2 km/h (1 Bft) 97,87 %
14.03.2026 05:38 3,8 °C 3,3 °C 0,0 °C 97 % 999,7 hPa 0,0 l/m² 0 min 0 W/m² 0,0 km/h (0 Bft) 100,00 %
14.03.2026 05:40 3,8 °C 3,3 °C 0,0 °C 97 % 999,6 hPa 0,2 l/m² 0 min 0 W/m² 3,2 km/h (1 Bft) 100,00 %
14.03.2026 05:42 3,8 °C 3,3 °C 0,0 °C 97 % 999,7 hPa 0,0 l/m² 0 min 0 W/m² 3,2 km/h (1 Bft) 100,00 %
14.03.2026 05:44 3,8 °C 3,3 °C 0,0 °C 97 % 999,6 hPa 0,0 l/m² 0 min 0 W/m² 0,0 km/h (0 Bft) 97,83 %
14.03.2026 05:46 3,8 °C 3,3 °C 0,0 °C 97 % 999,7 hPa 0,0 l/m² 0 min 0 W/m² 3,2 km/h (1 Bft) 100,00 %
14.03.2026 05:48 3,8 °C 3,3 °C 0,0 °C 97 % 999,7 hPa 0,0 l/m² 0 min 0 W/m² 3,2 km/h (1 Bft) 100,00 %
14.03.2026 05:50 3,8 °C 3,3 °C 0,0 °C 97 % 999,7 hPa 0,0 l/m² 0 min 0 W/m² 3,2 km/h (1 Bft) 100,00 %
14.03.2026 05:52 3,8 °C 3,3 °C 0,0 °C 97 % 999,6 hPa 0,0 l/m² 0 min 0 W/m² 3,2 km/h (1 Bft) 100,00 %
14.03.2026 05:54 3,8 °C 3,3 °C 0,0 °C 97 % 999,7 hPa 0,0 l/m² 0 min 0 W/m² 3,2 km/h (1 Bft) 97,87 %
14.03.2026 05:56 3,8 °C 3,3 °C 0,0 °C 97 % 999,6 hPa 0,0 l/m² 0 min 0 W/m² 3,2 km/h (1 Bft) 100,00 %
14.03.2026 05:58 3,8 °C 3,3 °C 0,0 °C 97 % 999,6 hPa 0,0 l/m² 0 min 0 W/m² 3,2 km/h (1 Bft) 100,00 %
14.03.2026 06:00 3,8 °C 3,3 °C 0,0 °C 97 % 999,7 hPa 0,0 l/m² 0 min 0 W/m² 3,2 km/h (1 Bft) 100,00 %
14.03.2026 06:02 3,8 °C 3,3 °C 0,0 °C 97 % 999,7 hPa 0,0 l/m² 0 min 0 W/m² 6,4 km/h (2 Bft) 97,87 %
14.03.2026 06:04 3,8 °C 3,3 °C 0,0 °C 97 % 999,7 hPa 0,0 l/m² 0 min 0 W/m² 3,2 km/h (1 Bft) 100,00 %
14.03.2026 06:07 3,8 °C 3,3 °C 0,0 °C 97 % 999,8 hPa 0,0 l/m² 0 min 0 W/m² 3,2 km/h (1 Bft) 100,00 %
14.03.2026 06:08 3,8 °C 3,3 °C 0,0 °C 97 % 999,8 hPa 0,0 l/m² 0 min 0 W/m² 3,2 km/h (1 Bft) 100,00 %
14.03.2026 06:12 3,8 °C 2,8 °C 0,0 °C 97 % 999,7 hPa 0,0 l/m² 0 min 0 W/m² 3,2 km/h (1 Bft) 100,00 %
14.03.2026 06:14 3,7 °C 2,8 °C 0,0 °C 97 % 999,7 hPa 0,0 l/m² 0 min 0 W/m² 3,2 km/h (1 Bft) 100,00 %
14.03.2026 06:16 3,7 °C 2,8 °C 0,0 °C 97 % 999,7 hPa 0,0 l/m² 0 min 0 W/m² 3,2 km/h (1 Bft) 97,87 %
14.03.2026 06:18 3,7 °C 2,8 °C 0,0 °C 97 % 999,7 hPa 0,2 l/m² 0 min 0 W/m² 3,2 km/h (1 Bft) 100,00 %
14.03.2026 06:20 3,7 °C 2,8 °C 0,0 °C 97 % 999,7 hPa 0,0 l/m² 0 min 0 W/m² 0,0 km/h (0 Bft) 100,00 %
14.03.2026 06:22 3,7 °C 3,3 °C 0,0 °C 97 % 999,6 hPa 0,0 l/m² 0 min 0 W/m² 3,2 km/h (1 Bft) 97,83 %
14.03.2026 06:24 3,7 °C 2,8 °C 0,0 °C 97 % 999,6 hPa 0,0 l/m² 0 min 0 W/m² 3,2 km/h (1 Bft) 98,00 %
14.03.2026 06:26 3,7 °C 2,8 °C 0,0 °C 97 % 999,7 hPa 0,0 l/m² 0 min 0 W/m² 0,0 km/h (0 Bft) 97,22 %
14.03.2026 06:28 3,7 °C 2,8 °C 0,0 °C 97 % 999,7 hPa 0,0 l/m² 0 min 0 W/m² 3,2 km/h (1 Bft) 100,00 %
14.03.2026 06:30 3,7 °C 3,3 °C 0,0 °C 97 % 999,7 hPa 0,0 l/m² 0 min 0 W/m² 3,2 km/h (1 Bft) 100,00 %
14.03.2026 06:32 3,7 °C 3,3 °C 0,0 °C 97 % 999,7 hPa 0,0 l/m² 0 min 0 W/m² 3,2 km/h (1 Bft) 100,00 %
14.03.2026 06:34 3,7 °C 3,3 °C 0,0 °C 97 % 999,7 hPa 0,0 l/m² 0 min 0 W/m² 3,2 km/h (1 Bft) 100,00 %
14.03.2026 06:36 3,7 °C 3,3 °C 0,0 °C 97 % 999,7 hPa 0,0 l/m² 0 min 0 W/m² 3,2 km/h (1 Bft) 95,74 %
14.03.2026 06:38 3,7 °C 3,3 °C 0,0 °C 97 % 999,7 hPa 0,2 l/m² 0 min 0 W/m² 6,4 km/h (2 Bft) 97,83 %
14.03.2026 06:40 3,7 °C 2,8 °C 0,0 °C 97 % 999,7 hPa 0,0 l/m² 0 min 0 W/m² 3,2 km/h (1 Bft) 97,87 %
14.03.2026 06:42 3,7 °C 2,8 °C 0,0 °C 97 % 999,7 hPa 0,0 l/m² 0 min 0 W/m² 3,2 km/h (1 Bft) 95,74 %
14.03.2026 06:47 3,7 °C 2,8 °C 0,0 °C 97 % 999,9 hPa 0,0 l/m² 0 min 0 W/m² 3,2 km/h (1 Bft) 95,83 %
14.03.2026 06:48 3,7 °C 2,8 °C 0,0 °C 97 % 999,9 hPa 0,0 l/m² 0 min 0 W/m² 0,0 km/h (0 Bft) 100,00 %
14.03.2026 06:50 3,7 °C 2,8 °C 0,0 °C 97 % 999,9 hPa 0,0 l/m² 0 min 0 W/m² 6,4 km/h (2 Bft) 100,00 %
14.03.2026 06:52 3,7 °C 2,8 °C 0,0 °C 97 % 999,8 hPa 0,0 l/m² 0 min 0 W/m² 3,2 km/h (1 Bft) 97,87 %
14.03.2026 06:54 3,7 °C 2,8 °C 0,0 °C 97 % 999,9 hPa 0,0 l/m² 0 min 0 W/m² 3,2 km/h (1 Bft) 97,87 %
14.03.2026 06:56 3,7 °C 2,8 °C 0,0 °C 97 % 999,9 hPa 0,0 l/m² 0 min 0 W/m² 3,2 km/h (1 Bft) 95,74 %
14.03.2026 06:58 3,7 °C 2,8 °C 0,0 °C 97 % 999,9 hPa 0,0 l/m² 0 min 0 W/m² 3,2 km/h (1 Bft) 95,74 %
14.03.2026 07:00 3,7 °C 2,8 °C 0,0 °C 97 % 1000,0 hPa 0,0 l/m² 0 min 0 W/m² 3,2 km/h (1 Bft) 95,65 %
14.03.2026 07:02 3,6 °C 2,8 °C 0,0 °C 97 % 1000,0 hPa 0,2 l/m² 0 min 0 W/m² 6,4 km/h (2 Bft) 97,87 %
14.03.2026 07:04 3,7 °C 2,8 °C 0,0 °C 97 % 1000,0 hPa 0,0 l/m² 0 min 0 W/m² 3,2 km/h (1 Bft) 95,92 %
14.03.2026 07:06 3,6 °C 2,8 °C 0,0 °C 97 % 1000,0 hPa 0,0 l/m² 0 min 0 W/m² 6,4 km/h (2 Bft) 95,74 %
14.03.2026 07:08 3,7 °C 2,8 °C 0,0 °C 97 % 1000,0 hPa 0,0 l/m² 0 min 0 W/m² 3,2 km/h (1 Bft) 95,74 %
14.03.2026 07:10 3,7 °C 2,8 °C 0,0 °C 97 % 1000,0 hPa 0,0 l/m² 0 min 0 W/m² 6,4 km/h (2 Bft) 95,74 %
14.03.2026 07:12 3,7 °C 2,8 °C 0,0 °C 97 % 1000,0 hPa 0,0 l/m² 0 min 0 W/m² 6,4 km/h (2 Bft) 97,83 %
14.03.2026 07:14 3,7 °C 2,8 °C 0,0 °C 97 % 1000,0 hPa 0,0 l/m² 0 min 0 W/m² 3,2 km/h (1 Bft) 93,62 %
14.03.2026 07:16 3,7 °C 2,8 °C 0,0 °C 97 % 1000,0 hPa 0,2 l/m² 0 min 0 W/m² 0,0 km/h (0 Bft) 94,44 %
14.03.2026 07:18 3,7 °C 3,3 °C 0,0 °C 97 % 999,9 hPa 0,0 l/m² 0 min 3 W/m² 3,2 km/h (1 Bft) 97,87 %
14.03.2026 07:20 3,7 °C 3,3 °C 0,0 °C 97 % 999,9 hPa 0,0 l/m² 0 min 5 W/m² 3,2 km/h (1 Bft) 95,74 %
14.03.2026 07:22 3,7 °C 3,3 °C 0,0 °C 97 % 999,9 hPa 0,0 l/m² 0 min 5 W/m² 6,4 km/h (2 Bft) 97,87 %
14.03.2026 07:24 3,7 °C 3,3 °C 0,0 °C 97 % 999,9 hPa 0,0 l/m² 0 min 6 W/m² 3,2 km/h (1 Bft) 95,65 %
14.03.2026 07:26 3,7 °C 2,8 °C 0,0 °C 97 % 999,8 hPa 0,0 l/m² 0 min 7 W/m² 3,2 km/h (1 Bft) 97,87 %
14.03.2026 07:28 3,7 °C 3,3 °C 0,0 °C 97 % 999,9 hPa 0,0 l/m² 0 min 8 W/m² 3,2 km/h (1 Bft) 97,87 %
14.03.2026 07:30 3,7 °C 3,3 °C 0,0 °C 97 % 999,9 hPa 0,0 l/m² 0 min 9 W/m² 3,2 km/h (1 Bft) 97,87 %
14.03.2026 07:32 3,7 °C 2,8 °C 0,0 °C 97 % 999,9 hPa 0,2 l/m² 0 min 10 W/m² 3,2 km/h (1 Bft) 95,74 %
14.03.2026 07:34 3,7 °C 2,8 °C -0,6 °C 97 % 999,9 hPa 0,0 l/m² 0 min 11 W/m² 6,4 km/h (2 Bft) 97,87 %
14.03.2026 07:36 3,6 °C 2,8 °C -0,6 °C 97 % 999,9 hPa 0,0 l/m² 0 min 11 W/m² 6,4 km/h (2 Bft) 95,65 %
14.03.2026 07:38 3,6 °C 2,8 °C -0,6 °C 97 % 999,9 hPa 0,0 l/m² 0 min 11 W/m² 6,4 km/h (2 Bft) 93,62 %
14.03.2026 07:43 3,6 °C 2,8 °C -0,6 °C 97 % 1000,0 hPa 0,2 l/m² 0 min 10 W/m² 3,2 km/h (1 Bft) 100,00 %
14.03.2026 07:44 3,6 °C 2,8 °C -0,6 °C 97 % 1000,0 hPa 0,0 l/m² 0 min 9 W/m² 0,0 km/h (0 Bft) 91,67 %
14.03.2026 07:46 3,6 °C 2,8 °C -0,6 °C 97 % 1000,0 hPa 0,0 l/m² 0 min 9 W/m² 0,0 km/h (0 Bft) 97,83 %
14.03.2026 07:48 3,5 °C 2,8 °C -0,6 °C 97 % 1000,0 hPa 0,0 l/m² 0 min 10 W/m² 6,4 km/h (2 Bft) 93,62 %
14.03.2026 07:50 3,5 °C 2,8 °C -0,6 °C 97 % 1000,1 hPa 0,0 l/m² 0 min 11 W/m² 3,2 km/h (1 Bft) 97,87 %
14.03.2026 07:52 3,5 °C 2,8 °C 0,0 °C 97 % 1000,1 hPa 0,0 l/m² 0 min 12 W/m² 3,2 km/h (1 Bft) 95,74 %
14.03.2026 07:54 3,5 °C 2,8 °C -0,6 °C 97 % 1000,1 hPa 0,2 l/m² 0 min 14 W/m² 6,4 km/h (2 Bft) 97,87 %
14.03.2026 07:56 3,5 °C 2,8 °C -0,6 °C 97 % 1000,2 hPa 0,0 l/m² 0 min 16 W/m² 6,4 km/h (2 Bft) 97,87 %
14.03.2026 07:58 3,5 °C 2,8 °C -0,6 °C 97 % 1000,2 hPa 0,0 l/m² 0 min 16 W/m² 6,4 km/h (2 Bft) 97,83 %
14.03.2026 08:00 3,4 °C 2,8 °C -0,6 °C 97 % 1000,1 hPa 0,0 l/m² 0 min 17 W/m² 6,4 km/h (2 Bft) 97,87 %
14.03.2026 08:02 3,4 °C 2,8 °C -0,6 °C 97 % 1000,2 hPa 0,0 l/m² 0 min 18 W/m² 6,4 km/h (2 Bft) 95,74 %
14.03.2026 08:04 3,4 °C 2,8 °C -0,6 °C 97 % 1000,2 hPa 0,0 l/m² 0 min 18 W/m² 3,2 km/h (1 Bft) 95,92 %
14.03.2026 08:06 3,4 °C 2,8 °C -0,6 °C 97 % 1000,2 hPa 0,0 l/m² 0 min 18 W/m² 3,2 km/h (1 Bft) 95,74 %
14.03.2026 08:08 3,4 °C 2,8 °C -0,6 °C 97 % 1000,3 hPa 0,2 l/m² 0 min 19 W/m² 3,2 km/h (1 Bft) 95,74 %
14.03.2026 08:10 3,4 °C 2,8 °C -0,6 °C 97 % 1000,3 hPa 0,0 l/m² 0 min 19 W/m² 3,2 km/h (1 Bft) 95,65 %
14.03.2026 08:12 3,4 °C 2,8 °C -0,6 °C 97 % 1000,3 hPa 0,0 l/m² 0 min 20 W/m² 3,2 km/h (1 Bft) 97,87 %
14.03.2026 08:14 3,4 °C 2,8 °C -0,6 °C 97 % 1000,3 hPa 0,0 l/m² 0 min 21 W/m² 6,4 km/h (2 Bft) 97,56 %
14.03.2026 08:16 3,3 °C 2,8 °C -0,6 °C 97 % 1000,3 hPa 0,0 l/m² 0 min 21 W/m² 6,4 km/h (2 Bft) 100,00 %
14.03.2026 08:18 3,3 °C 2,8 °C -0,6 °C 97 % 1000,3 hPa 0,0 l/m² 0 min 21 W/m² 6,4 km/h (2 Bft) 95,74 %
14.03.2026 08:20 3,3 °C 2,8 °C -0,6 °C 97 % 1000,4 hPa 0,2 l/m² 0 min 22 W/m² 3,2 km/h (1 Bft) 95,74 %
14.03.2026 08:22 3,3 °C 2,8 °C -0,6 °C 97 % 1000,4 hPa 0,0 l/m² 0 min 23 W/m² 3,2 km/h (1 Bft) 97,83 %
14.03.2026 08:24 3,3 °C 2,8 °C -0,6 °C 97 % 1000,4 hPa 0,0 l/m² 0 min 23 W/m² 3,2 km/h (1 Bft) 97,87 %
14.03.2026 08:26 3,3 °C 2,8 °C -0,6 °C 97 % 1000,4 hPa 0,0 l/m² 0 min 23 W/m² 3,2 km/h (1 Bft) 97,87 %
14.03.2026 08:28 3,3 °C 2,8 °C -0,6 °C 97 % 1000,4 hPa 0,2 l/m² 0 min 25 W/m² 6,4 km/h (2 Bft) 95,74 %
14.03.2026 08:30 3,3 °C 2,8 °C -0,6 °C 97 % 1000,4 hPa 0,0 l/m² 0 min 24 W/m² 6,4 km/h (2 Bft) 95,74 %
14.03.2026 08:32 3,3 °C 2,8 °C -0,6 °C 97 % 1000,4 hPa 0,0 l/m² 0 min 25 W/m² 3,2 km/h (1 Bft) 95,74 %
14.03.2026 08:34 3,3 °C 2,8 °C -0,6 °C 97 % 1000,4 hPa 0,0 l/m² 0 min 25 W/m² 3,2 km/h (1 Bft) 95,65 %
14.03.2026 08:36 3,3 °C 2,8 °C -0,6 °C 97 % 1000,4 hPa 0,2 l/m² 0 min 25 W/m² 0,0 km/h (0 Bft) 97,87 %
14.03.2026 08:38 3,3 °C 2,8 °C -0,6 °C 97 % 1000,4 hPa 0,0 l/m² 0 min 25 W/m² 0,0 km/h (0 Bft) 97,87 %
14.03.2026 08:40 3,3 °C 2,8 °C -0,6 °C 97 % 1000,4 hPa 0,0 l/m² 0 min 23 W/m² 0,0 km/h (0 Bft) 95,74 %
14.03.2026 08:42 3,3 °C 2,8 °C -0,6 °C 97 % 1000,5 hPa 0,0 l/m² 0 min 23 W/m² 6,4 km/h (2 Bft) 93,62 %
14.03.2026 08:44 3,3 °C 2,8 °C -0,6 °C 97 % 1000,5 hPa 0,2 l/m² 0 min 23 W/m² 3,2 km/h (1 Bft) 93,62 %
14.03.2026 08:46 3,3 °C 2,8 °C -0,6 °C 97 % 1000,5 hPa 0,0 l/m² 0 min 23 W/m² 3,2 km/h (1 Bft) 97,83 %
14.03.2026 08:48 3,3 °C 2,8 °C -0,6 °C 97 % 1000,6 hPa 0,0 l/m² 0 min 25 W/m² 6,4 km/h (2 Bft) 97,87 %
14.03.2026 08:50 3,3 °C 2,8 °C -0,6 °C 97 % 1000,6 hPa 0,0 l/m² 0 min 26 W/m² 3,2 km/h (1 Bft) 97,87 %
14.03.2026 08:52 3,3 °C 2,8 °C -0,6 °C 97 % 1000,7 hPa 0,2 l/m² 0 min 26 W/m² 3,2 km/h (1 Bft) 95,74 %
14.03.2026 08:54 3,3 °C 2,8 °C -0,6 °C 97 % 1000,7 hPa 0,0 l/m² 0 min 28 W/m² 3,2 km/h (1 Bft) 97,87 %
14.03.2026 08:56 3,3 °C 2,8 °C -0,6 °C 97 % 1000,7 hPa 0,2 l/m² 0 min 29 W/m² 6,4 km/h (2 Bft) 93,62 %
14.03.2026 08:58 3,3 °C 2,8 °C -0,6 °C 97 % 1000,7 hPa 0,0 l/m² 0 min 31 W/m² 6,4 km/h (2 Bft) 100,00 %
14.03.2026 09:00 3,3 °C 2,8 °C -0,6 °C 97 % 1000,7 hPa 0,0 l/m² 0 min 32 W/m² 3,2 km/h (1 Bft) 100,00 %
14.03.2026 09:02 3,2 °C 2,8 °C -0,6 °C 97 % 1000,8 hPa 0,2 l/m² 0 min 33 W/m² 9,7 km/h (2 Bft) 100,00 %
14.03.2026 09:04 3,2 °C 2,8 °C -0,6 °C 97 % 1000,8 hPa 0,0 l/m² 0 min 33 W/m² 6,4 km/h (2 Bft) 95,92 %
14.03.2026 09:06 3,2 °C 2,8 °C -0,6 °C 97 % 1000,9 hPa 0,0 l/m² 0 min 32 W/m² 6,4 km/h (2 Bft) 100,00 %
14.03.2026 09:08 3,1 °C 2,8 °C -0,6 °C 97 % 1001,0 hPa 0,2 l/m² 0 min 32 W/m² 3,2 km/h (1 Bft) 97,83 %
14.03.2026 09:10 3,1 °C 2,8 °C -0,6 °C 97 % 1001,0 hPa 0,0 l/m² 0 min 29 W/m² 6,4 km/h (2 Bft) 97,87 %
14.03.2026 09:12 3,1 °C 2,8 °C -0,6 °C 97 % 1001,0 hPa 0,0 l/m² 0 min 28 W/m² 0,0 km/h (0 Bft) 97,87 %
14.03.2026 09:14 3,1 °C 2,8 °C -0,6 °C 97 % 1001,0 hPa 0,2 l/m² 0 min 28 W/m² 0,0 km/h (0 Bft) 97,87 %
14.03.2026 09:16 3,1 °C 2,8 °C -0,6 °C 97 % 1001,0 hPa 0,0 l/m² 0 min 28 W/m² 0,0 km/h (0 Bft) 97,87 %
14.03.2026 09:18 3,1 °C 2,8 °C -0,6 °C 97 % 1001,0 hPa 0,0 l/m² 0 min 28 W/m² 3,2 km/h (1 Bft) 100,00 %
14.03.2026 09:20 3,1 °C 2,8 °C -0,6 °C 97 % 1001,0 hPa 0,2 l/m² 0 min 28 W/m² 0,0 km/h (0 Bft) 97,83 %
14.03.2026 09:22 3,1 °C 2,8 °C -0,6 °C 97 % 1001,1 hPa 0,0 l/m² 0 min 30 W/m² 3,2 km/h (1 Bft) 100,00 %
14.03.2026 09:24 3,1 °C 2,8 °C -0,6 °C 97 % 1001,1 hPa 0,0 l/m² 0 min 30 W/m² 3,2 km/h (1 Bft) 97,87 %
14.03.2026 09:26 3,1 °C 2,8 °C -0,6 °C 97 % 1001,0 hPa 0,2 l/m² 0 min 29 W/m² 0,0 km/h (0 Bft) 95,74 %
14.03.2026 09:28 3,1 °C 2,8 °C -0,6 °C 97 % 1001,0 hPa 0,0 l/m² 0 min 28 W/m² 0,0 km/h (0 Bft) 97,87 %
14.03.2026 09:30 3,1 °C 2,8 °C -0,6 °C 97 % 1001,0 hPa 0,0 l/m² 0 min 29 W/m² 0,0 km/h (0 Bft) 97,87 %
14.03.2026 09:32 3,1 °C 2,8 °C -0,6 °C 97 % 1001,0 hPa 0,2 l/m² 0 min 28 W/m² 0,0 km/h (0 Bft) 97,83 %
14.03.2026 09:34 3,1 °C 2,8 °C -0,6 °C 97 % 1001,1 hPa 0,0 l/m² 0 min 30 W/m² 3,2 km/h (1 Bft) 97,87 %
14.03.2026 09:36 3,1 °C 2,8 °C -0,6 °C 97 % 1001,1 hPa 0,0 l/m² 0 min 32 W/m² 3,2 km/h (1 Bft) 97,87 %
14.03.2026 09:38 3,1 °C 2,8 °C -0,6 °C 97 % 1001,2 hPa 0,0 l/m² 0 min 34 W/m² 3,2 km/h (1 Bft) 97,87 %
14.03.2026 09:40 3,1 °C 2,2 °C -0,6 °C 97 % 1001,2 hPa 0,0 l/m² 0 min 35 W/m² 6,4 km/h (2 Bft) 95,74 %
14.03.2026 09:42 3,1 °C 2,2 °C -0,6 °C 97 % 1001,3 hPa 0,2 l/m² 0 min 35 W/m² 3,2 km/h (1 Bft) 95,74 %
14.03.2026 09:44 3,1 °C 2,8 °C -0,6 °C 97 % 1001,2 hPa 0,0 l/m² 0 min 37 W/m² 3,2 km/h (1 Bft) 97,83 %
14.03.2026 09:46 3,0 °C 2,8 °C -0,6 °C 97 % 1001,3 hPa 0,0 l/m² 0 min 39 W/m² 3,2 km/h (1 Bft) 97,87 %
14.03.2026 09:48 3,0 °C 2,8 °C -0,6 °C 97 % 1001,3 hPa 0,0 l/m² 0 min 40 W/m² 3,2 km/h (1 Bft) 97,87 %
14.03.2026 09:50 3,0 °C 2,8 °C -1,1 °C 97 % 1001,3 hPa 0,2 l/m² 0 min 42 W/m² 6,4 km/h (2 Bft) 97,87 %
14.03.2026 09:52 3,0 °C 2,8 °C -0,6 °C 97 % 1001,3 hPa 0,0 l/m² 0 min 43 W/m² 0,0 km/h (0 Bft) 93,62 %
14.03.2026 09:54 3,0 °C 2,8 °C -0,6 °C 97 % 1001,3 hPa 0,0 l/m² 0 min 44 W/m² 3,2 km/h (1 Bft) 97,87 %
14.03.2026 09:56 2,9 °C 2,8 °C -0,6 °C 97 % 1001,3 hPa 0,0 l/m² 0 min 43 W/m² 9,7 km/h (2 Bft) 97,83 %
14.03.2026 09:58 2,9 °C 2,8 °C -0,6 °C 97 % 1001,3 hPa 0,0 l/m² 0 min 40 W/m² 0,0 km/h (0 Bft) 95,74 %
14.03.2026 10:00 2,9 °C 2,8 °C -0,6 °C 97 % 1001,4 hPa 0,2 l/m² 0 min 35 W/m² 0,0 km/h (0 Bft) 97,87 %
14.03.2026 10:02 2,9 °C 2,8 °C -0,6 °C 97 % 1001,4 hPa 0,0 l/m² 0 min 32 W/m² 3,2 km/h (1 Bft) 97,87 %
14.03.2026 10:04 2,9 °C 2,2 °C -1,1 °C 97 % 1001,4 hPa 0,0 l/m² 0 min 31 W/m² 3,2 km/h (1 Bft) 100,00 %
14.03.2026 10:06 2,8 °C 2,2 °C -1,1 °C 97 % 1001,4 hPa 0,2 l/m² 0 min 36 W/m² 3,2 km/h (1 Bft) 100,00 %
14.03.2026 10:08 2,8 °C 2,2 °C -1,1 °C 97 % 1001,4 hPa 0,0 l/m² 0 min 41 W/m² 0,0 km/h (0 Bft) 100,00 %
14.03.2026 10:10 2,8 °C 2,2 °C -1,1 °C 96 % 1001,4 hPa 0,0 l/m² 0 min 40 W/m² 3,2 km/h (1 Bft) 97,87 %
14.03.2026 10:12 2,8 °C 2,2 °C -1,1 °C 96 % 1001,4 hPa 0,0 l/m² 0 min 40 W/m² 3,2 km/h (1 Bft) 95,74 %
14.03.2026 10:14 2,8 °C 2,2 °C -1,1 °C 96 % 1001,4 hPa 0,0 l/m² 0 min 46 W/m² 3,2 km/h (1 Bft) 97,87 %
14.03.2026 10:16 2,8 °C 2,2 °C -1,1 °C 96 % 1001,4 hPa 0,2 l/m² 0 min 51 W/m² 0,0 km/h (0 Bft) 97,83 %
14.03.2026 10:18 2,8 °C 2,2 °C -1,1 °C 96 % 1001,3 hPa 0,0 l/m² 0 min 56 W/m² 0,0 km/h (0 Bft) 97,87 %
14.03.2026 10:20 2,8 °C 2,2 °C -1,1 °C 96 % 1001,3 hPa 0,0 l/m² 0 min 65 W/m² 0,0 km/h (0 Bft) 97,87 %
14.03.2026 10:22 2,8 °C 2,8 °C -1,1 °C 96 % 1001,3 hPa 0,0 l/m² 0 min 74 W/m² 0,0 km/h (0 Bft) 97,87 %
14.03.2026 10:24 2,8 °C 2,8 °C -1,1 °C 97 % 1001,3 hPa 0,0 l/m² 0 min 82 W/m² 0,0 km/h (0 Bft) 97,87 %
14.03.2026 10:26 2,8 °C 2,8 °C -1,1 °C 96 % 1001,3 hPa 0,2 l/m² 0 min 87 W/m² 9,7 km/h (2 Bft) 97,87 %
14.03.2026 10:28 2,8 °C 2,8 °C -0,6 °C 97 % 1001,2 hPa 0,0 l/m² 0 min 93 W/m² 6,4 km/h (2 Bft) 97,83 %
14.03.2026 10:30 2,8 °C 2,8 °C -0,6 °C 97 % 1001,3 hPa 0,0 l/m² 0 min 98 W/m² 6,4 km/h (2 Bft) 97,87 %
14.03.2026 10:32 2,8 °C 2,8 °C -1,1 °C 97 % 1001,3 hPa 0,0 l/m² 0 min 106 W/m² 6,4 km/h (2 Bft) 97,87 %
14.03.2026 10:34 2,8 °C 2,8 °C -1,1 °C 97 % 1001,3 hPa 0,0 l/m² 0 min 113 W/m² 9,7 km/h (2 Bft) 100,00 %
14.03.2026 10:36 2,8 °C 2,8 °C -1,1 °C 97 % 1001,4 hPa 0,2 l/m² 0 min 114 W/m² 3,2 km/h (1 Bft) 97,87 %
14.03.2026 10:38 2,8 °C 2,8 °C -0,6 °C 97 % 1001,4 hPa 0,0 l/m² 0 min 115 W/m² 3,2 km/h (1 Bft) 93,62 %
14.03.2026 10:40 2,9 °C 2,8 °C -0,6 °C 97 % 1001,4 hPa 0,0 l/m² 0 min 113 W/m² 6,4 km/h (2 Bft) 93,48 %
14.03.2026 10:42 2,9 °C 2,8 °C -0,6 °C 97 % 1001,5 hPa 0,2 l/m² 0 min 111 W/m² 6,4 km/h (2 Bft) 95,74 %
14.03.2026 10:44 2,9 °C 2,8 °C -0,6 °C 97 % 1001,5 hPa 0,0 l/m² 0 min 111 W/m² 9,7 km/h (2 Bft) 100,00 %
14.03.2026 10:46 2,8 °C 2,8 °C -1,1 °C 97 % 1001,5 hPa 0,0 l/m² 0 min 104 W/m² 3,2 km/h (1 Bft) 100,00 %
14.03.2026 10:48 2,8 °C 2,8 °C -1,1 °C 97 % 1001,6 hPa 0,0 l/m² 0 min 98 W/m² 3,2 km/h (1 Bft) 100,00 %
14.03.2026 10:50 2,8 °C 2,8 °C -1,1 °C 97 % 1001,6 hPa 0,2 l/m² 0 min 90 W/m² 6,4 km/h (2 Bft) 100,00 %
14.03.2026 10:52 2,8 °C 2,8 °C -0,6 °C 97 % 1001,6 hPa 0,0 l/m² 0 min 84 W/m² 6,4 km/h (2 Bft) 100,00 %
14.03.2026 10:54 2,8 °C 2,8 °C -0,6 °C 96 % 1001,6 hPa 0,0 l/m² 0 min 80 W/m² 6,4 km/h (2 Bft) 95,74 %
14.03.2026 10:56 2,8 °C 2,8 °C -0,6 °C 96 % 1001,6 hPa 0,0 l/m² 0 min 79 W/m² 6,4 km/h (2 Bft) 95,74 %
14.03.2026 10:58 2,8 °C 2,8 °C -0,6 °C 96 % 1001,6 hPa 0,0 l/m² 0 min 78 W/m² 3,2 km/h (1 Bft) 97,87 %
14.03.2026 11:00 2,8 °C 2,8 °C -0,6 °C 96 % 1001,6 hPa 0,0 l/m² 0 min 77 W/m² 3,2 km/h (1 Bft) 100,00 %
14.03.2026 11:02 2,8 °C 2,8 °C -1,1 °C 96 % 1001,6 hPa 0,0 l/m² 0 min 80 W/m² 3,2 km/h (1 Bft) 91,30 %
14.03.2026 11:04 2,8 °C 2,8 °C -0,6 °C 96 % 1001,6 hPa 0,0 l/m² 0 min 81 W/m² 3,2 km/h (1 Bft) 97,87 %
14.03.2026 11:06 2,7 °C 2,8 °C -0,6 °C 96 % 1001,6 hPa 0,0 l/m² 0 min 81 W/m² 3,2 km/h (1 Bft) 97,87 %
14.03.2026 11:08 2,7 °C 2,8 °C -0,6 °C 96 % 1001,7 hPa 0,0 l/m² 0 min 85 W/m² 6,4 km/h (2 Bft) 97,92 %
14.03.2026 11:10 2,7 °C 2,8 °C -0,6 °C 96 % 1001,7 hPa 0,0 l/m² 0 min 88 W/m² 6,4 km/h (2 Bft) 93,62 %
14.03.2026 11:12 2,8 °C 2,8 °C -0,6 °C 96 % 1001,7 hPa 0,0 l/m² 0 min 85 W/m² 3,2 km/h (1 Bft) 97,87 %
14.03.2026 11:14 2,8 °C 2,8 °C -0,6 °C 96 % 1001,7 hPa 0,0 l/m² 0 min 83 W/m² 0,0 km/h (0 Bft) 97,83 %
14.03.2026 11:16 2,8 °C 2,8 °C -0,6 °C 96 % 1001,8 hPa 0,0 l/m² 0 min 81 W/m² 6,4 km/h (2 Bft) 97,87 %
14.03.2026 11:18 2,8 °C 2,8 °C -0,6 °C 96 % 1001,8 hPa 0,0 l/m² 0 min 78 W/m² 3,2 km/h (1 Bft) 97,87 %
14.03.2026 11:20 2,8 °C 2,8 °C -1,1 °C 97 % 1001,8 hPa 0,0 l/m² 0 min 76 W/m² 3,2 km/h (1 Bft) 97,87 %
14.03.2026 11:22 2,8 °C 2,8 °C -1,1 °C 97 % 1001,8 hPa 0,0 l/m² 0 min 79 W/m² 3,2 km/h (1 Bft) 97,87 %
14.03.2026 11:24 2,8 °C 2,8 °C -0,6 °C 97 % 1001,8 hPa 0,2 l/m² 0 min 79 W/m² 3,2 km/h (1 Bft) 97,87 %
14.03.2026 11:26 2,8 °C 2,8 °C -0,6 °C 97 % 1001,9 hPa 0,0 l/m² 0 min 77 W/m² 3,2 km/h (1 Bft) 97,83 %
14.03.2026 11:28 2,8 °C 2,8 °C -0,6 °C 97 % 1001,9 hPa 0,0 l/m² 0 min 73 W/m² 3,2 km/h (1 Bft) 95,74 %
14.03.2026 11:30 2,8 °C 2,2 °C -1,1 °C 97 % 1001,9 hPa 0,0 l/m² 0 min 75 W/m² 3,2 km/h (1 Bft) 97,87 %
14.03.2026 11:32 2,8 °C 2,8 °C -1,1 °C 96 % 1001,9 hPa 0,2 l/m² 0 min 77 W/m² 0,0 km/h (0 Bft) 97,87 %
14.03.2026 11:34 2,8 °C 2,8 °C -0,6 °C 97 % 1001,9 hPa 0,0 l/m² 0 min 77 W/m² 0,0 km/h (0 Bft) 95,74 %
14.03.2026 11:36 2,8 °C 2,8 °C -0,6 °C 97 % 1001,9 hPa 0,0 l/m² 0 min 78 W/m² 3,2 km/h (1 Bft) 97,87 %
14.03.2026 11:38 2,8 °C 2,8 °C -0,6 °C 97 % 1002,0 hPa 0,0 l/m² 0 min 83 W/m² 3,2 km/h (1 Bft) 97,83 %
14.03.2026 11:40 2,8 °C 2,8 °C -1,1 °C 97 % 1002,0 hPa 0,2 l/m² 0 min 84 W/m² 0,0 km/h (0 Bft) 97,87 %
14.03.2026 11:42 2,8 °C 2,8 °C -1,1 °C 97 % 1002,0 hPa 0,0 l/m² 0 min 88 W/m² 3,2 km/h (1 Bft) 95,74 %
14.03.2026 11:44 2,8 °C 2,8 °C -0,6 °C 97 % 1002,0 hPa 0,0 l/m² 0 min 94 W/m² 3,2 km/h (1 Bft) 95,74 %
14.03.2026 11:46 2,8 °C 2,8 °C -0,6 °C 97 % 1002,0 hPa 0,0 l/m² 0 min 97 W/m² 3,2 km/h (1 Bft) 100,00 %
14.03.2026 11:48 2,8 °C 2,8 °C -0,6 °C 97 % 1002,0 hPa 0,0 l/m² 0 min 99 W/m² 6,4 km/h (2 Bft) 100,00 %
14.03.2026 11:50 2,8 °C 2,8 °C -0,6 °C 97 % 1002,0 hPa 0,0 l/m² 0 min 105 W/m² 9,7 km/h (2 Bft) 97,83 %
14.03.2026 11:52 2,8 °C 2,8 °C -0,6 °C 97 % 1001,9 hPa 0,2 l/m² 0 min 109 W/m² 3,2 km/h (1 Bft) 97,87 %
14.03.2026 11:54 2,8 °C 2,8 °C -0,6 °C 97 % 1001,9 hPa 0,0 l/m² 0 min 123 W/m² 6,4 km/h (2 Bft) 97,87 %
14.03.2026 11:56 2,9 °C 2,8 °C -0,6 °C 97 % 1002,0 hPa 0,0 l/m² 0 min 132 W/m² 3,2 km/h (1 Bft) 95,74 %
14.03.2026 11:58 2,9 °C 2,8 °C -0,6 °C 97 % 1002,0 hPa 0,0 l/m² 0 min 136 W/m² 6,4 km/h (2 Bft) 97,87 %
14.03.2026 12:00 2,9 °C 2,8 °C -0,6 °C 97 % 1002,0 hPa 0,0 l/m² 0 min 146 W/m² 6,4 km/h (2 Bft) 95,65 %
14.03.2026 12:02 2,9 °C 2,8 °C -0,6 °C 97 % 1002,0 hPa 0,0 l/m² 0 min 157 W/m² 6,4 km/h (2 Bft) 97,87 %
14.03.2026 12:04 2,8 °C 3,3 °C -0,6 °C 97 % 1002,0 hPa 0,0 l/m² 0 min 165 W/m² 3,2 km/h (1 Bft) 95,12 %
14.03.2026 12:07 2,8 °C 3,3 °C -0,6 °C 97 % 1002,0 hPa 0,0 l/m² 0 min 171 W/m² 3,2 km/h (1 Bft) 94,94 %
14.03.2026 12:08 2,8 °C 3,3 °C -0,6 °C 97 % 1002,0 hPa 0,0 l/m² 0 min 177 W/m² 3,2 km/h (1 Bft) 91,67 %
14.03.2026 12:12 2,9 °C 3,3 °C -0,6 °C 97 % 1002,0 hPa 0,2 l/m² 0 min 190 W/m² 3,2 km/h (1 Bft) 92,31 %
14.03.2026 12:14 3,0 °C 3,9 °C 0,0 °C 97 % 1002,1 hPa 0,0 l/m² 0 min 192 W/m² 6,4 km/h (2 Bft) 93,62 %
14.03.2026 12:16 3,0 °C 3,9 °C 0,0 °C 97 % 1002,1 hPa 0,0 l/m² 0 min 196 W/m² 3,2 km/h (1 Bft) 93,48 %
14.03.2026 12:18 3,1 °C 3,9 °C 0,0 °C 97 % 1002,0 hPa 0,0 l/m² 0 min 209 W/m² 3,2 km/h (1 Bft) 95,74 %
14.03.2026 12:20 3,1 °C 3,9 °C 0,0 °C 97 % 1002,1 hPa 0,0 l/m² 0 min 222 W/m² 0,0 km/h (0 Bft) 97,87 %
14.03.2026 12:22 3,1 °C 3,9 °C 0,0 °C 97 % 1002,1 hPa 0,0 l/m² 0 min 234 W/m² 0,0 km/h (0 Bft) 95,74 %
14.03.2026 12:24 3,1 °C 3,9 °C 0,0 °C 97 % 1002,1 hPa 0,0 l/m² 0 min 246 W/m² 0,0 km/h (0 Bft) 95,74 %
14.03.2026 12:26 3,1 °C 3,9 °C 0,0 °C 97 % 1002,1 hPa 0,0 l/m² 0 min 226 W/m² 0,0 km/h (0 Bft) 95,74 %
14.03.2026 12:28 3,1 °C 3,9 °C 0,0 °C 97 % 1002,2 hPa 0,0 l/m² 0 min 220 W/m² 9,7 km/h (2 Bft) 95,65 %
14.03.2026 12:30 3,1 °C 3,9 °C 0,0 °C 97 % 1002,2 hPa 0,0 l/m² 0 min 217 W/m² 9,7 km/h (2 Bft) 95,92 %
14.03.2026 12:32 3,2 °C 3,9 °C 0,0 °C 97 % 1002,3 hPa 0,0 l/m² 0 min 212 W/m² 12,9 km/h (3 Bft) 95,74 %
14.03.2026 12:34 3,2 °C 3,9 °C 0,0 °C 97 % 1002,3 hPa 0,0 l/m² 0 min 211 W/m² 6,4 km/h (2 Bft) 95,74 %
14.03.2026 12:36 3,2 °C 3,9 °C 0,0 °C 97 % 1002,3 hPa 0,2 l/m² 0 min 194 W/m² 9,7 km/h (2 Bft) 93,62 %
14.03.2026 12:38 3,2 °C 3,9 °C 0,0 °C 97 % 1002,3 hPa 0,0 l/m² 0 min 174 W/m² 6,4 km/h (2 Bft) 95,74 %
14.03.2026 12:40 3,2 °C 3,9 °C 0,0 °C 97 % 1002,4 hPa 0,0 l/m² 0 min 162 W/m² 6,4 km/h (2 Bft) 97,87 %
14.03.2026 12:42 3,2 °C 3,9 °C 0,0 °C 97 % 1002,5 hPa 0,0 l/m² 0 min 136 W/m² 3,2 km/h (1 Bft) 100,00 %
14.03.2026 12:44 3,3 °C 3,9 °C 0,0 °C 97 % 1002,5 hPa 0,0 l/m² 0 min 132 W/m² 9,7 km/h (2 Bft) 100,00 %
14.03.2026 12:46 3,3 °C 3,3 °C 0,0 °C 97 % 1002,5 hPa 0,0 l/m² 0 min 118 W/m² 6,4 km/h (2 Bft) 100,00 %
14.03.2026 12:48 3,3 °C 3,3 °C 0,0 °C 97 % 1002,5 hPa 0,0 l/m² 0 min 125 W/m² 6,4 km/h (2 Bft) 100,00 %
14.03.2026 12:50 3,3 °C 3,3 °C 0,0 °C 97 % 1002,5 hPa 0,0 l/m² 0 min 133 W/m² 12,9 km/h (3 Bft) 100,00 %
14.03.2026 12:52 3,3 °C 3,9 °C 0,0 °C 97 % 1002,5 hPa 0,0 l/m² 0 min 116 W/m² 9,7 km/h (2 Bft) 100,00 %
14.03.2026 12:54 3,3 °C 3,9 °C 0,0 °C 97 % 1002,5 hPa 0,0 l/m² 0 min 126 W/m² 6,4 km/h (2 Bft) 100,00 %
14.03.2026 12:56 3,4 °C 3,3 °C 0,0 °C 97 % 1002,6 hPa 0,0 l/m² 0 min 134 W/m² 6,4 km/h (2 Bft) 100,00 %
14.03.2026 12:58 3,4 °C 3,3 °C 0,0 °C 97 % 1002,6 hPa 0,0 l/m² 0 min 139 W/m² 9,7 km/h (2 Bft) 100,00 %
14.03.2026 13:00 3,4 °C 3,9 °C 0,0 °C 97 % 1002,6 hPa 0,0 l/m² 0 min 145 W/m² 9,7 km/h (2 Bft) 100,00 %
14.03.2026 13:02 3,4 °C 3,9 °C 0,0 °C 97 % 1002,7 hPa 0,0 l/m² 0 min 152 W/m² 6,4 km/h (2 Bft) 100,00 %
14.03.2026 13:04 3,4 °C 3,9 °C 0,0 °C 97 % 1002,7 hPa 0,0 l/m² 0 min 132 W/m² 6,4 km/h (2 Bft) 100,00 %
14.03.2026 13:06 3,5 °C 3,3 °C 0,0 °C 97 % 1002,7 hPa 0,0 l/m² 0 min 111 W/m² 6,4 km/h (2 Bft) 100,00 %
14.03.2026 13:08 3,5 °C 3,3 °C 0,0 °C 97 % 1002,7 hPa 0,0 l/m² 0 min 109 W/m² 12,9 km/h (3 Bft) 100,00 %
14.03.2026 13:10 3,4 °C 3,3 °C 0,0 °C 97 % 1002,7 hPa 0,0 l/m² 0 min 106 W/m² 6,4 km/h (2 Bft) 100,00 %
14.03.2026 13:12 3,4 °C 3,3 °C 0,0 °C 97 % 1002,7 hPa 0,0 l/m² 0 min 101 W/m² 6,4 km/h (2 Bft) 97,87 %
14.03.2026 13:14 3,4 °C 3,3 °C 0,0 °C 97 % 1002,7 hPa 0,0 l/m² 0 min 106 W/m² 3,2 km/h (1 Bft) 100,00 %
14.03.2026 13:16 3,5 °C 3,9 °C 0,0 °C 97 % 1002,8 hPa 0,0 l/m² 0 min 120 W/m² 9,7 km/h (2 Bft) 100,00 %
14.03.2026 13:18 3,5 °C 3,9 °C 0,0 °C 97 % 1002,8 hPa 0,0 l/m² 0 min 119 W/m² 6,4 km/h (2 Bft) 100,00 %
14.03.2026 13:20 3,6 °C 3,3 °C 0,0 °C 97 % 1002,8 hPa 0,0 l/m² 0 min 119 W/m² 6,4 km/h (2 Bft) 100,00 %
14.03.2026 13:22 3,6 °C 3,9 °C 0,0 °C 97 % 1002,8 hPa 0,0 l/m² 0 min 132 W/m² 6,4 km/h (2 Bft) 100,00 %
14.03.2026 13:24 3,6 °C 3,9 °C 0,0 °C 97 % 1002,8 hPa 0,0 l/m² 0 min 154 W/m² 6,4 km/h (2 Bft) 100,00 %
14.03.2026 13:26 3,6 °C 3,9 °C 0,0 °C 97 % 1002,8 hPa 0,0 l/m² 0 min 165 W/m² 3,2 km/h (1 Bft) 95,74 %
14.03.2026 13:28 3,6 °C 3,9 °C 0,0 °C 97 % 1002,9 hPa 0,0 l/m² 0 min 170 W/m² 6,4 km/h (2 Bft) 100,00 %
14.03.2026 13:30 3,7 °C 3,9 °C 0,0 °C 97 % 1002,9 hPa 0,0 l/m² 0 min 169 W/m² 9,7 km/h (2 Bft) 100,00 %
14.03.2026 13:32 3,7 °C 3,9 °C 0,0 °C 97 % 1002,9 hPa 0,0 l/m² 0 min 162 W/m² 9,7 km/h (2 Bft) 100,00 %
14.03.2026 13:34 3,7 °C 3,9 °C 0,0 °C 97 % 1002,9 hPa 0,0 l/m² 0 min 169 W/m² 9,7 km/h (2 Bft) 100,00 %
14.03.2026 13:36 3,7 °C 3,9 °C 0,0 °C 97 % 1002,9 hPa 0,0 l/m² 0 min 165 W/m² 9,7 km/h (2 Bft) 100,00 %
14.03.2026 13:38 3,7 °C 3,9 °C 0,6 °C 97 % 1002,9 hPa 0,0 l/m² 0 min 158 W/m² 9,7 km/h (2 Bft) 97,87 %
14.03.2026 13:40 3,6 °C 3,9 °C 0,0 °C 97 % 1002,9 hPa 0,0 l/m² 0 min 165 W/m² 12,9 km/h (3 Bft) 100,00 %
14.03.2026 13:42 3,6 °C 3,9 °C 0,0 °C 97 % 1002,9 hPa 0,0 l/m² 0 min 174 W/m² 9,7 km/h (2 Bft) 100,00 %
14.03.2026 13:44 3,6 °C 3,9 °C 0,0 °C 97 % 1002,9 hPa 0,2 l/m² 0 min 169 W/m² 12,9 km/h (3 Bft) 100,00 %
14.03.2026 13:46 3,7 °C 3,9 °C 0,6 °C 97 % 1002,9 hPa 0,0 l/m² 0 min 183 W/m² 6,4 km/h (2 Bft) 97,87 %
14.03.2026 13:48 3,7 °C 3,9 °C 0,6 °C 97 % 1002,8 hPa 0,0 l/m² 0 min 184 W/m² 6,4 km/h (2 Bft) 97,87 %
14.03.2026 13:50 3,7 °C 4,4 °C 0,6 °C 97 % 1002,9 hPa 0,0 l/m² 0 min 197 W/m² 9,7 km/h (2 Bft) 95,74 %
14.03.2026 13:52 3,7 °C 4,4 °C 0,6 °C 97 % 1002,9 hPa 0,0 l/m² 0 min 205 W/m² 6,4 km/h (2 Bft) 97,83 %
14.03.2026 13:54 3,8 °C 4,4 °C 0,6 °C 97 % 1003,0 hPa 0,0 l/m² 0 min 170 W/m² 6,4 km/h (2 Bft) 97,87 %
14.03.2026 13:56 3,8 °C 4,4 °C 0,6 °C 97 % 1003,0 hPa 0,0 l/m² 0 min 153 W/m² 9,7 km/h (2 Bft) 55,56 %
14.03.2026 13:58 3,8 °C 4,4 °C 0,6 °C 97 % 1003,1 hPa 0,0 l/m² 0 min 153 W/m² 9,7 km/h (2 Bft) 95,74 %
14.03.2026 14:00 3,8 °C 3,9 °C 0,6 °C 97 % 1003,1 hPa 0,0 l/m² 0 min 160 W/m² 9,7 km/h (2 Bft) 93,62 %
14.03.2026 14:02 3,8 °C 3,9 °C 0,6 °C 97 % 1003,2 hPa 0,0 l/m² 0 min 169 W/m² 9,7 km/h (2 Bft) 95,74 %
14.03.2026 14:04 3,8 °C 4,4 °C 0,6 °C 97 % 1003,2 hPa 0,0 l/m² 0 min 184 W/m² 9,7 km/h (2 Bft) 95,65 %
14.03.2026 14:06 3,8 °C 4,4 °C 0,6 °C 97 % 1003,2 hPa 0,0 l/m² 0 min 174 W/m² 9,7 km/h (2 Bft) 93,62 %
14.03.2026 14:08 3,9 °C 4,4 °C 0,6 °C 97 % 1003,3 hPa 0,0 l/m² 0 min 144 W/m² 9,7 km/h (2 Bft) 95,83 %
14.03.2026 14:10 3,9 °C 4,4 °C 0,0 °C 97 % 1003,2 hPa 0,0 l/m² 0 min 144 W/m² 9,7 km/h (2 Bft) 95,74 %
14.03.2026 14:12 3,8 °C 4,4 °C 0,0 °C 97 % 1003,2 hPa 0,0 l/m² 0 min 156 W/m² 9,7 km/h (2 Bft) 93,62 %
14.03.2026 14:14 3,9 °C 3,9 °C 0,0 °C 97 % 1003,2 hPa 0,0 l/m² 0 min 152 W/m² 9,7 km/h (2 Bft) 95,74 %
14.03.2026 14:16 3,8 °C 3,9 °C 0,0 °C 97 % 1003,3 hPa 0,0 l/m² 0 min 152 W/m² 9,7 km/h (2 Bft) 95,65 %
14.03.2026 14:18 3,8 °C 3,9 °C 0,0 °C 97 % 1003,3 hPa 0,0 l/m² 0 min 167 W/m² 9,7 km/h (2 Bft) 95,74 %
14.03.2026 14:20 3,8 °C 3,9 °C 0,6 °C 97 % 1003,3 hPa 0,0 l/m² 0 min 152 W/m² 9,7 km/h (2 Bft) 95,74 %
14.03.2026 14:22 3,8 °C 3,9 °C 0,6 °C 97 % 1003,3 hPa 0,0 l/m² 0 min 136 W/m² 6,4 km/h (2 Bft) 93,62 %
14.03.2026 14:24 3,8 °C 3,9 °C 0,6 °C 97 % 1003,3 hPa 0,0 l/m² 0 min 163 W/m² 12,9 km/h (3 Bft) 93,62 %
14.03.2026 14:26 3,8 °C 3,9 °C 0,0 °C 97 % 1003,3 hPa 0,0 l/m² 0 min 179 W/m² 6,4 km/h (2 Bft) 93,62 %
14.03.2026 14:28 3,8 °C 3,9 °C 0,0 °C 97 % 1003,3 hPa 0,0 l/m² 0 min 170 W/m² 16,1 km/h (3 Bft) 95,65 %
14.03.2026 14:30 3,8 °C 3,9 °C 0,6 °C 97 % 1003,3 hPa 0,0 l/m² 0 min 170 W/m² 12,9 km/h (3 Bft) 95,74 %
14.03.2026 14:32 3,8 °C 3,9 °C 0,6 °C 97 % 1003,3 hPa 0,0 l/m² 0 min 178 W/m² 9,7 km/h (2 Bft) 97,87 %
14.03.2026 14:34 3,8 °C 4,4 °C 0,6 °C 97 % 1003,3 hPa 0,0 l/m² 0 min 194 W/m² 19,3 km/h (3 Bft) 97,87 %
14.03.2026 14:36 3,8 °C 4,4 °C 0,6 °C 97 % 1003,3 hPa 0,0 l/m² 0 min 236 W/m² 9,7 km/h (2 Bft) 95,74 %
14.03.2026 14:38 3,8 °C 5,0 °C 0,6 °C 97 % 1003,3 hPa 0,0 l/m² 0 min 244 W/m² 12,9 km/h (3 Bft) 95,74 %
14.03.2026 14:40 3,9 °C 5,0 °C 0,6 °C 97 % 1003,4 hPa 0,0 l/m² 0 min 246 W/m² 12,9 km/h (3 Bft) 95,65 %
14.03.2026 14:42 3,8 °C 5,0 °C 0,6 °C 97 % 1003,4 hPa 0,0 l/m² 0 min 233 W/m² 9,7 km/h (2 Bft) 97,87 %
14.03.2026 14:44 3,9 °C 5,6 °C 0,6 °C 97 % 1003,5 hPa 0,0 l/m² 2 min 260 W/m² 9,7 km/h (2 Bft) 100,00 %
14.03.2026 14:46 3,9 °C 5,0 °C 0,6 °C 97 % 1003,5 hPa 0,0 l/m² 0 min 218 W/m² 9,7 km/h (2 Bft) 100,00 %
14.03.2026 14:48 4,0 °C 5,0 °C 0,6 °C 97 % 1003,5 hPa 0,0 l/m² 0 min 203 W/m² 9,7 km/h (2 Bft) 97,87 %
14.03.2026 14:50 4,1 °C 5,0 °C 0,6 °C 97 % 1003,5 hPa 0,0 l/m² 0 min 193 W/m² 6,4 km/h (2 Bft) 97,87 %
14.03.2026 14:52 4,1 °C 5,0 °C 0,6 °C 97 % 1003,6 hPa 0,0 l/m² 0 min 175 W/m² 9,7 km/h (2 Bft) 97,83 %
14.03.2026 14:54 4,1 °C 4,4 °C 0,6 °C 97 % 1003,7 hPa 0,0 l/m² 0 min 154 W/m² 9,7 km/h (2 Bft) 95,74 %
14.03.2026 14:56 4,2 °C 4,4 °C 0,6 °C 97 % 1003,7 hPa 0,0 l/m² 0 min 132 W/m² 9,7 km/h (2 Bft) 100,00 %
14.03.2026 14:58 4,2 °C 4,4 °C 0,6 °C 97 % 1003,7 hPa 0,0 l/m² 0 min 133 W/m² 6,4 km/h (2 Bft) 91,49 %
14.03.2026 15:00 4,2 °C 4,4 °C 0,6 °C 97 % 1003,7 hPa 0,0 l/m² 0 min 144 W/m² 6,4 km/h (2 Bft) 95,74 %
14.03.2026 15:02 4,2 °C 4,4 °C 0,6 °C 97 % 1003,8 hPa 0,0 l/m² 0 min 161 W/m² 9,7 km/h (2 Bft) 97,83 %
14.03.2026 15:04 4,2 °C 4,4 °C 0,6 °C 97 % 1003,8 hPa 0,0 l/m² 0 min 159 W/m² 6,4 km/h (2 Bft) 100,00 %
14.03.2026 15:06 4,1 °C 4,4 °C 0,6 °C 97 % 1003,8 hPa 0,0 l/m² 0 min 168 W/m² 9,7 km/h (2 Bft) 97,87 %
14.03.2026 15:08 4,1 °C 4,4 °C 0,6 °C 97 % 1003,9 hPa 0,0 l/m² 0 min 187 W/m² 6,4 km/h (2 Bft) 98,11 %
14.03.2026 15:10 4,2 °C 5,0 °C 0,6 °C 97 % 1003,9 hPa 0,0 l/m² 0 min 207 W/m² 6,4 km/h (2 Bft) 97,14 %
14.03.2026 15:12 4,2 °C 5,0 °C 1,1 °C 97 % 1003,9 hPa 0,0 l/m² 0 min 176 W/m² 9,7 km/h (2 Bft) 98,39 %
14.03.2026 15:14 4,2 °C 4,4 °C 0,6 °C 97 % 1003,9 hPa 0,0 l/m² 0 min 146 W/m² 6,4 km/h (2 Bft) 95,65 %
14.03.2026 15:16 4,2 °C 4,4 °C 0,6 °C 97 % 1004,0 hPa 0,0 l/m² 0 min 127 W/m² 6,4 km/h (2 Bft) 97,87 %
14.03.2026 15:18 4,2 °C 4,4 °C 0,6 °C 97 % 1004,0 hPa 0,0 l/m² 0 min 126 W/m² 6,4 km/h (2 Bft) 97,87 %
14.03.2026 15:20 4,3 °C 4,4 °C 0,6 °C 97 % 1004,0 hPa 0,0 l/m² 0 min 116 W/m² 9,7 km/h (2 Bft) 95,74 %
14.03.2026 15:22 4,3 °C 4,4 °C 0,6 °C 97 % 1003,9 hPa 0,0 l/m² 0 min 104 W/m² 6,4 km/h (2 Bft) 97,87 %
14.03.2026 15:24 4,3 °C 4,4 °C 0,6 °C 97 % 1003,9 hPa 0,0 l/m² 0 min 103 W/m² 6,4 km/h (2 Bft) 97,83 %
14.03.2026 15:26 4,3 °C 4,4 °C 0,6 °C 97 % 1004,0 hPa 0,0 l/m² 0 min 111 W/m² 3,2 km/h (1 Bft) 97,87 %
14.03.2026 15:28 4,3 °C 4,4 °C 0,6 °C 96 % 1003,9 hPa 0,0 l/m² 0 min 125 W/m² 9,7 km/h (2 Bft) 95,74 %
14.03.2026 15:30 4,3 °C 4,4 °C 0,6 °C 96 % 1003,9 hPa 0,0 l/m² 0 min 130 W/m² 9,7 km/h (2 Bft) 97,87 %
14.03.2026 15:32 4,3 °C 4,4 °C 0,6 °C 96 % 1004,0 hPa 0,0 l/m² 0 min 133 W/m² 6,4 km/h (2 Bft) 97,87 %
14.03.2026 15:34 4,3 °C 4,4 °C 0,6 °C 96 % 1004,0 hPa 0,0 l/m² 0 min 132 W/m² 6,4 km/h (2 Bft) 97,87 %
14.03.2026 15:36 4,3 °C 4,4 °C 0,6 °C 96 % 1004,0 hPa 0,0 l/m² 0 min 129 W/m² 3,2 km/h (1 Bft) 97,83 %
14.03.2026 15:38 4,3 °C 4,4 °C 0,6 °C 96 % 1004,0 hPa 0,0 l/m² 0 min 141 W/m² 9,7 km/h (2 Bft) 95,74 %
14.03.2026 15:40 4,3 °C 4,4 °C 0,6 °C 96 % 1004,0 hPa 0,0 l/m² 0 min 151 W/m² 9,7 km/h (2 Bft) 97,87 %
14.03.2026 15:42 4,3 °C 4,4 °C 0,6 °C 96 % 1004,0 hPa 0,0 l/m² 0 min 146 W/m² 6,4 km/h (2 Bft) 97,87 %
14.03.2026 15:44 4,3 °C 4,4 °C 0,6 °C 96 % 1004,0 hPa 0,0 l/m² 0 min 143 W/m² 9,7 km/h (2 Bft) 100,00 %
14.03.2026 15:46 4,4 °C 4,4 °C 0,6 °C 96 % 1004,1 hPa 0,0 l/m² 0 min 137 W/m² 9,7 km/h (2 Bft) 97,87 %
14.03.2026 15:48 4,4 °C 4,4 °C 0,6 °C 96 % 1004,1 hPa 0,0 l/m² 0 min 126 W/m² 9,7 km/h (2 Bft) 100,00 %
14.03.2026 15:50 4,4 °C 4,4 °C 1,1 °C 96 % 1004,1 hPa 0,0 l/m² 0 min 116 W/m² 9,7 km/h (2 Bft) 97,87 %
14.03.2026 15:52 4,4 °C 4,4 °C 0,6 °C 96 % 1004,1 hPa 0,0 l/m² 0 min 105 W/m² 6,4 km/h (2 Bft) 93,62 %
14.03.2026 15:54 4,4 °C 4,4 °C 1,1 °C 96 % 1004,1 hPa 0,2 l/m² 0 min 110 W/m² 12,9 km/h (3 Bft) 97,87 %
14.03.2026 15:56 4,5 °C 4,4 °C 0,6 °C 96 % 1004,2 hPa 0,0 l/m² 0 min 120 W/m² 16,1 km/h (3 Bft) 97,87 %
14.03.2026 15:58 4,5 °C 4,4 °C 0,6 °C 96 % 1004,2 hPa 0,0 l/m² 0 min 115 W/m² 12,9 km/h (3 Bft) 97,87 %
14.03.2026 16:00 4,5 °C 4,4 °C 0,6 °C 96 % 1004,2 hPa 0,0 l/m² 0 min 114 W/m² 6,4 km/h (2 Bft) 97,83 %
14.03.2026 16:02 4,6 °C 4,4 °C 1,1 °C 96 % 1004,3 hPa 0,0 l/m² 0 min 105 W/m² 6,4 km/h (2 Bft) 97,87 %
14.03.2026 16:04 4,6 °C 4,4 °C 1,1 °C 96 % 1004,3 hPa 0,0 l/m² 0 min 89 W/m² 6,4 km/h (2 Bft) 95,74 %
14.03.2026 16:06 4,6 °C 4,4 °C 0,6 °C 96 % 1004,4 hPa 0,0 l/m² 0 min 99 W/m² 6,4 km/h (2 Bft) 97,87 %
14.03.2026 16:08 4,6 °C 4,4 °C 0,6 °C 96 % 1004,4 hPa 0,0 l/m² 0 min 120 W/m² 9,7 km/h (2 Bft) 97,87 %
14.03.2026 16:10 4,6 °C 4,4 °C 0,6 °C 96 % 1004,4 hPa 0,0 l/m² 0 min 110 W/m² 6,4 km/h (2 Bft) 95,74 %
14.03.2026 16:12 4,6 °C 4,4 °C 0,6 °C 96 % 1004,4 hPa 0,0 l/m² 0 min 120 W/m² 6,4 km/h (2 Bft) 97,83 %
14.03.2026 16:14 4,5 °C 5,0 °C 0,6 °C 96 % 1004,4 hPa 0,0 l/m² 0 min 168 W/m² 9,7 km/h (2 Bft) 97,87 %
14.03.2026 16:16 4,5 °C 5,0 °C 0,6 °C 96 % 1004,4 hPa 0,0 l/m² 2 min 204 W/m² 6,4 km/h (2 Bft) 97,87 %
14.03.2026 16:18 4,6 °C 5,6 °C 1,1 °C 96 % 1004,4 hPa 0,0 l/m² 2 min 209 W/m² 6,4 km/h (2 Bft) 97,87 %
14.03.2026 16:20 4,6 °C 5,6 °C 1,1 °C 96 % 1004,5 hPa 0,0 l/m² 2 min 198 W/m² 6,4 km/h (2 Bft) 100,00 %
14.03.2026 16:22 4,6 °C 5,6 °C 1,1 °C 96 % 1004,5 hPa 0,0 l/m² 2 min 204 W/m² 6,4 km/h (2 Bft) 97,87 %
14.03.2026 16:24 4,7 °C 6,1 °C 1,1 °C 96 % 1004,5 hPa 0,0 l/m² 2 min 208 W/m² 9,7 km/h (2 Bft) 97,83 %
14.03.2026 16:26 4,8 °C 6,1 °C 1,1 °C 96 % 1004,5 hPa 0,0 l/m² 2 min 193 W/m² 6,4 km/h (2 Bft) 95,74 %
14.03.2026 16:28 4,8 °C 6,1 °C 1,1 °C 96 % 1004,5 hPa 0,0 l/m² 2 min 173 W/m² 9,7 km/h (2 Bft) 100,00 %
14.03.2026 16:30 4,8 °C 6,1 °C 1,1 °C 96 % 1004,5 hPa 0,0 l/m² 2 min 157 W/m² 3,2 km/h (1 Bft) 100,00 %
14.03.2026 16:32 4,9 °C 6,1 °C 1,1 °C 96 % 1004,5 hPa 0,0 l/m² 0 min 146 W/m² 3,2 km/h (1 Bft) 100,00 %
14.03.2026 16:34 4,9 °C 5,6 °C 1,1 °C 96 % 1004,5 hPa 0,0 l/m² 0 min 132 W/m² 0,0 km/h (0 Bft) 100,00 %
14.03.2026 16:36 4,9 °C 5,6 °C 1,1 °C 96 % 1004,5 hPa 0,0 l/m² 0 min 128 W/m² 6,4 km/h (2 Bft) 100,00 %
14.03.2026 16:38 4,9 °C 5,6 °C 1,1 °C 96 % 1004,5 hPa 0,0 l/m² 0 min 136 W/m² 3,2 km/h (1 Bft) 100,00 %
14.03.2026 16:40 4,9 °C 5,6 °C 1,1 °C 96 % 1004,6 hPa 0,0 l/m² 0 min 139 W/m² 9,7 km/h (2 Bft) 100,00 %
14.03.2026 16:42 5,0 °C 5,6 °C 1,1 °C 96 % 1004,6 hPa 0,0 l/m² 0 min 133 W/m² 3,2 km/h (1 Bft) 100,00 %
14.03.2026 16:44 5,0 °C 5,6 °C 1,1 °C 96 % 1004,7 hPa 0,0 l/m² 0 min 123 W/m² 6,4 km/h (2 Bft) 100,00 %
14.03.2026 16:46 5,1 °C 5,6 °C 1,1 °C 96 % 1004,7 hPa 0,0 l/m² 0 min 108 W/m² 6,4 km/h (2 Bft) 97,83 %
14.03.2026 16:48 5,1 °C 5,6 °C 1,1 °C 96 % 1004,7 hPa 0,0 l/m² 0 min 99 W/m² 6,4 km/h (2 Bft) 100,00 %
14.03.2026 16:50 5,1 °C 5,6 °C 1,1 °C 96 % 1004,7 hPa 0,0 l/m² 0 min 100 W/m² 3,2 km/h (1 Bft) 100,00 %
14.03.2026 16:52 5,1 °C 5,6 °C 1,1 °C 96 % 1004,6 hPa 0,0 l/m² 0 min 118 W/m² 0,0 km/h (0 Bft) 100,00 %
14.03.2026 16:54 5,1 °C 5,6 °C 1,1 °C 96 % 1004,6 hPa 0,0 l/m² 2 min 156 W/m² 3,2 km/h (1 Bft) 100,00 %
14.03.2026 16:56 5,1 °C 6,1 °C 1,1 °C 96 % 1004,6 hPa 0,0 l/m² 2 min 191 W/m² 3,2 km/h (1 Bft) 100,00 %
14.03.2026 16:58 5,1 °C 6,1 °C 1,1 °C 96 % 1004,7 hPa 0,0 l/m² 2 min 205 W/m² 3,2 km/h (1 Bft) 100,00 %
14.03.2026 17:00 5,1 °C 6,1 °C 1,1 °C 96 % 1004,7 hPa 0,0 l/m² 2 min 185 W/m² 3,2 km/h (1 Bft) 95,65 %
14.03.2026 17:02 5,2 °C 6,7 °C 1,7 °C 96 % 1004,8 hPa 0,0 l/m² 2 min 176 W/m² 6,4 km/h (2 Bft) 95,74 %
14.03.2026 17:04 5,2 °C 6,7 °C 1,7 °C 96 % 1004,8 hPa 0,0 l/m² 2 min 168 W/m² 3,2 km/h (1 Bft) 97,87 %
14.03.2026 17:06 5,3 °C 6,7 °C 1,7 °C 96 % 1004,8 hPa 0,0 l/m² 2 min 168 W/m² 3,2 km/h (1 Bft) 97,92 %
14.03.2026 17:08 5,3 °C 6,7 °C 1,7 °C 96 % 1004,8 hPa 0,0 l/m² 2 min 159 W/m² 6,4 km/h (2 Bft) 97,92 %
14.03.2026 17:10 5,3 °C 6,7 °C 1,7 °C 96 % 1004,8 hPa 0,0 l/m² 2 min 142 W/m² 3,2 km/h (1 Bft) 97,83 %
14.03.2026 17:12 5,4 °C 6,7 °C 1,7 °C 96 % 1004,8 hPa 0,0 l/m² 2 min 123 W/m² 3,2 km/h (1 Bft) 97,87 %
14.03.2026 17:14 5,4 °C 6,1 °C 1,7 °C 96 % 1004,8 hPa 0,0 l/m² 2 min 113 W/m² 3,2 km/h (1 Bft) 95,74 %
14.03.2026 17:16 5,3 °C 6,1 °C 1,1 °C 96 % 1004,9 hPa 0,0 l/m² 2 min 132 W/m² 6,4 km/h (2 Bft) 97,87 %
14.03.2026 17:18 5,3 °C 6,1 °C 1,7 °C 96 % 1004,9 hPa 0,0 l/m² 2 min 115 W/m² 3,2 km/h (1 Bft) 97,87 %
14.03.2026 17:20 5,3 °C 5,6 °C 1,1 °C 96 % 1004,9 hPa 0,0 l/m² 2 min 102 W/m² 6,4 km/h (2 Bft) 97,87 %
14.03.2026 17:22 5,3 °C 5,6 °C 1,1 °C 95 % 1004,9 hPa 0,0 l/m² 2 min 100 W/m² 6,4 km/h (2 Bft) 97,83 %
14.03.2026 17:24 5,2 °C 5,6 °C 1,1 °C 95 % 1005,0 hPa 0,0 l/m² 2 min 97 W/m² 3,2 km/h (1 Bft) 97,87 %
14.03.2026 17:26 5,3 °C 5,6 °C 1,1 °C 95 % 1005,0 hPa 0,0 l/m² 2 min 94 W/m² 6,4 km/h (2 Bft) 97,87 %
14.03.2026 17:28 5,3 °C 5,6 °C 1,1 °C 95 % 1005,0 hPa 0,0 l/m² 2 min 87 W/m² 3,2 km/h (1 Bft) 97,87 %
14.03.2026 17:30 5,3 °C 5,6 °C 1,1 °C 95 % 1005,0 hPa 0,0 l/m² 2 min 86 W/m² 3,2 km/h (1 Bft) 95,74 %
14.03.2026 17:32 5,3 °C 6,1 °C 1,1 °C 95 % 1005,0 hPa 0,0 l/m² 2 min 105 W/m² 3,2 km/h (1 Bft) 95,74 %
14.03.2026 17:34 5,3 °C 6,1 °C 1,1 °C 95 % 1005,1 hPa 0,0 l/m² 2 min 93 W/m² 6,4 km/h (2 Bft) 93,48 %
14.03.2026 17:36 5,4 °C 5,6 °C 1,1 °C 95 % 1005,1 hPa 0,0 l/m² 2 min 74 W/m² 3,2 km/h (1 Bft) 95,74 %
14.03.2026 17:38 5,4 °C 5,6 °C 1,1 °C 95 % 1005,1 hPa 0,0 l/m² 0 min 70 W/m² 3,2 km/h (1 Bft) 95,74 %
14.03.2026 17:40 5,3 °C 5,6 °C 1,1 °C 95 % 1005,2 hPa 0,0 l/m² 2 min 69 W/m² 3,2 km/h (1 Bft) 95,74 %
14.03.2026 17:42 5,4 °C 5,6 °C 1,1 °C 95 % 1005,1 hPa 0,0 l/m² 2 min 70 W/m² 0,0 km/h (0 Bft) 95,74 %
14.03.2026 17:44 5,4 °C 5,6 °C 1,1 °C 95 % 1005,1 hPa 0,0 l/m² 2 min 68 W/m² 0,0 km/h (0 Bft) 93,48 %
14.03.2026 17:46 5,3 °C 5,6 °C 1,1 °C 95 % 1005,2 hPa 0,0 l/m² 2 min 63 W/m² 0,0 km/h (0 Bft) 87,23 %
14.03.2026 17:48 5,4 °C 5,6 °C 1,1 °C 95 % 1005,2 hPa 0,0 l/m² 0 min 56 W/m² 0,0 km/h (0 Bft) 91,49 %
14.03.2026 17:50 5,4 °C 5,6 °C 1,1 °C 95 % 1005,2 hPa 0,0 l/m² 0 min 50 W/m² 0,0 km/h (0 Bft) 93,62 %
14.03.2026 17:52 5,4 °C 5,0 °C 1,1 °C 95 % 1005,4 hPa 0,0 l/m² 0 min 44 W/m² 0,0 km/h (0 Bft) 91,49 %
14.03.2026 17:54 5,4 °C 5,0 °C 1,1 °C 95 % 1005,4 hPa 0,0 l/m² 0 min 40 W/m² 0,0 km/h (0 Bft) 95,74 %
14.03.2026 17:56 5,4 °C 5,0 °C 1,1 °C 95 % 1005,4 hPa 0,0 l/m² 0 min 36 W/m² 0,0 km/h (0 Bft) 95,65 %
14.03.2026 17:58 5,4 °C 5,0 °C 1,1 °C 95 % 1005,4 hPa 0,0 l/m² 0 min 34 W/m² 0,0 km/h (0 Bft) 93,62 %
14.03.2026 18:00 5,3 °C 5,0 °C 1,1 °C 95 % 1005,4 hPa 0,0 l/m² 0 min 33 W/m² 0,0 km/h (0 Bft) 93,62 %
14.03.2026 18:02 5,3 °C 5,0 °C 1,1 °C 95 % 1005,5 hPa 0,0 l/m² 0 min 31 W/m² 0,0 km/h (0 Bft) 93,62 %
14.03.2026 18:04 5,3 °C 4,4 °C 1,1 °C 95 % 1005,6 hPa 0,0 l/m² 0 min 27 W/m² 0,0 km/h (0 Bft) 95,74 %
14.03.2026 18:07 5,3 °C 4,4 °C 1,1 °C 94 % 1005,6 hPa 0,0 l/m² 0 min 26 W/m² 0,0 km/h (0 Bft) 93,44 %
14.03.2026 18:08 5,3 °C 4,4 °C 1,1 °C 94 % 1005,6 hPa 0,0 l/m² 0 min 25 W/m² 0,0 km/h (0 Bft) 96,00 %
14.03.2026 18:12 5,3 °C 4,4 °C 1,1 °C 94 % 1005,6 hPa 0,0 l/m² 0 min 21 W/m² 0,0 km/h (0 Bft) 91,38 %
14.03.2026 18:14 5,3 °C 4,4 °C 0,6 °C 94 % 1005,7 hPa 0,0 l/m² 0 min 21 W/m² 0,0 km/h (0 Bft) 95,83 %
14.03.2026 18:16 5,3 °C 4,4 °C 0,6 °C 94 % 1005,7 hPa 0,0 l/m² 0 min 19 W/m² 0,0 km/h (0 Bft) 95,74 %
14.03.2026 18:18 5,2 °C 4,4 °C 0,6 °C 94 % 1005,7 hPa 0,0 l/m² 0 min 19 W/m² 0,0 km/h (0 Bft) 100,00 %
14.03.2026 18:20 5,2 °C 3,9 °C 0,6 °C 94 % 1005,8 hPa 0,0 l/m² 0 min 18 W/m² 0,0 km/h (0 Bft) 98,00 %
14.03.2026 18:22 5,2 °C 3,9 °C 0,6 °C 94 % 1005,8 hPa 0,0 l/m² 0 min 15 W/m² 0,0 km/h (0 Bft) 97,87 %
14.03.2026 18:24 5,2 °C 3,9 °C 0,6 °C 94 % 1005,8 hPa 0,0 l/m² 0 min 14 W/m² 0,0 km/h (0 Bft) 100,00 %
14.03.2026 18:26 5,2 °C 3,9 °C 0,6 °C 94 % 1005,9 hPa 0,0 l/m² 0 min 13 W/m² 0,0 km/h (0 Bft) 100,00 %
14.03.2026 18:28 5,2 °C 3,9 °C 0,6 °C 94 % 1005,8 hPa 0,0 l/m² 0 min 12 W/m² 0,0 km/h (0 Bft) 98,00 %
14.03.2026 18:30 5,2 °C 3,9 °C 0,6 °C 94 % 1005,9 hPa 0,0 l/m² 0 min 11 W/m² 0,0 km/h (0 Bft) 97,87 %
14.03.2026 18:32 5,1 °C 3,9 °C 0,6 °C 94 % 1005,9 hPa 0,0 l/m² 0 min 10 W/m² 0,0 km/h (0 Bft) 100,00 %
14.03.2026 18:34 5,1 °C 3,3 °C 0,6 °C 94 % 1005,9 hPa 0,0 l/m² 0 min 8 W/m² 0,0 km/h (0 Bft) 100,00 %
14.03.2026 18:36 5,1 °C 3,3 °C 0,6 °C 94 % 1005,9 hPa 0,0 l/m² 0 min 7 W/m² 0,0 km/h (0 Bft) 95,74 %
14.03.2026 18:38 5,0 °C 3,3 °C 0,0 °C 94 % 1006,0 hPa 0,0 l/m² 0 min 5 W/m² 0,0 km/h (0 Bft) 100,00 %
14.03.2026 18:40 5,0 °C 3,3 °C 0,0 °C 94 % 1006,1 hPa 0,0 l/m² 0 min 1 W/m² 0,0 km/h (0 Bft) 100,00 %
14.03.2026 18:42 4,9 °C 3,3 °C 0,0 °C 94 % 1006,1 hPa 0,0 l/m² 0 min 0 W/m² 0,0 km/h (0 Bft) 94,00 %
14.03.2026 18:44 4,9 °C 2,8 °C 0,0 °C 94 % 1006,1 hPa 0,0 l/m² 0 min 0 W/m² 0,0 km/h (0 Bft) 100,00 %
14.03.2026 18:46 4,9 °C 2,8 °C 0,0 °C 94 % 1006,2 hPa 0,0 l/m² 0 min 0 W/m² 0,0 km/h (0 Bft) 97,87 %
14.03.2026 18:48 4,8 °C 2,8 °C 0,0 °C 94 % 1006,2 hPa 0,0 l/m² 0 min 0 W/m² 0,0 km/h (0 Bft) 100,00 %
14.03.2026 18:50 4,8 °C 2,8 °C 0,0 °C 94 % 1006,3 hPa 0,0 l/m² 0 min 0 W/m² 0,0 km/h (0 Bft) 97,96 %
14.03.2026 18:52 4,8 °C 2,8 °C -0,6 °C 94 % 1006,2 hPa 0,0 l/m² 0 min 0 W/m² 0,0 km/h (0 Bft) 97,87 %
14.03.2026 18:54 4,7 °C 2,8 °C -0,6 °C 94 % 1006,3 hPa 0,0 l/m² 0 min 0 W/m² 0,0 km/h (0 Bft) 100,00 %
14.03.2026 18:56 4,7 °C 2,8 °C -0,6 °C 94 % 1006,3 hPa 0,0 l/m² 0 min 0 W/m² 0,0 km/h (0 Bft) 100,00 %
14.03.2026 18:58 4,6 °C 2,8 °C 0,0 °C 94 % 1006,4 hPa 0,0 l/m² 0 min 0 W/m² 0,0 km/h (0 Bft) 97,96 %
14.03.2026 19:00 4,6 °C 2,8 °C 0,0 °C 94 % 1006,4 hPa 0,0 l/m² 0 min 0 W/m² 0,0 km/h (0 Bft) 100,00 %
14.03.2026 19:02 4,6 °C 2,8 °C -0,6 °C 94 % 1006,5 hPa 0,0 l/m² 0 min 0 W/m² 0,0 km/h (0 Bft) 97,87 %
14.03.2026 19:04 4,5 °C 2,8 °C -0,6 °C 94 % 1006,5 hPa 0,0 l/m² 0 min 0 W/m² 0,0 km/h (0 Bft) 97,67 %
14.03.2026 19:06 4,4 °C 2,8 °C -0,6 °C 94 % 1006,5 hPa 0,0 l/m² 0 min 0 W/m² 0,0 km/h (0 Bft) 91,53 %
14.03.2026 19:08 4,4 °C 2,8 °C -0,6 °C 94 % 1006,6 hPa 0,0 l/m² 0 min 0 W/m² 0,0 km/h (0 Bft) 100,00 %
14.03.2026 19:10 4,4 °C 2,8 °C -0,6 °C 94 % 1006,6 hPa 0,0 l/m² 0 min 0 W/m² 0,0 km/h (0 Bft) 97,22 %
14.03.2026 19:12 4,3 °C 2,8 °C -0,6 °C 93 % 1006,6 hPa 0,0 l/m² 0 min 0 W/m² 0,0 km/h (0 Bft) 100,00 %
14.03.2026 19:14 4,3 °C 2,8 °C -0,6 °C 93 % 1006,6 hPa 0,0 l/m² 0 min 0 W/m² 0,0 km/h (0 Bft) 100,00 %
14.03.2026 19:16 4,3 °C 2,8 °C -0,6 °C 93 % 1006,6 hPa 0,0 l/m² 0 min 0 W/m² 0,0 km/h (0 Bft) 100,00 %
14.03.2026 19:21 4,2 °C 2,8 °C -0,6 °C 94 % 1006,7 hPa 0,0 l/m² 0 min 0 W/m² 0,0 km/h (0 Bft) 97,50 %
14.03.2026 19:22 4,2 °C 2,8 °C -0,6 °C 94 % 1006,7 hPa 0,0 l/m² 0 min 0 W/m² 0,0 km/h (0 Bft) 100,00 %
14.03.2026 19:24 4,2 °C 2,8 °C -0,6 °C 94 % 1006,8 hPa 0,0 l/m² 0 min 0 W/m² 0,0 km/h (0 Bft) 97,87 %
14.03.2026 19:26 4,2 °C 2,8 °C -0,6 °C 94 % 1006,8 hPa 0,0 l/m² 0 min 0 W/m² 0,0 km/h (0 Bft) 97,83 %
14.03.2026 19:28 4,1 °C 2,8 °C -0,6 °C 94 % 1006,9 hPa 0,0 l/m² 0 min 0 W/m² 0,0 km/h (0 Bft) 97,87 %
14.03.2026 19:30 4,1 °C 2,8 °C -0,6 °C 94 % 1006,9 hPa 0,0 l/m² 0 min 0 W/m² 0,0 km/h (0 Bft) 95,74 %
14.03.2026 19:32 4,1 °C 2,8 °C -0,6 °C 94 % 1006,9 hPa 0,0 l/m² 0 min 0 W/m² 0,0 km/h (0 Bft) 95,74 %
14.03.2026 19:34 4,1 °C 2,8 °C -0,6 °C 94 % 1006,9 hPa 0,0 l/m² 0 min 0 W/m² 0,0 km/h (0 Bft) 89,36 %
14.03.2026 19:36 4,1 °C 2,8 °C -0,6 °C 94 % 1007,0 hPa 0,0 l/m² 0 min 0 W/m² 0,0 km/h (0 Bft) 95,74 %
14.03.2026 19:41 4,1 °C 2,8 °C -0,6 °C 94 % 1007,1 hPa 0,0 l/m² 0 min 0 W/m² 0,0 km/h (0 Bft) 98,48 %
14.03.2026 19:42 4,1 °C 2,8 °C -0,6 °C 94 % 1007,1 hPa 0,0 l/m² 0 min 0 W/m² 0,0 km/h (0 Bft) 91,30 %
14.03.2026 19:44 4,0 °C 2,8 °C -0,6 °C 94 % 1007,2 hPa 0,0 l/m² 0 min 0 W/m² 0,0 km/h (0 Bft) 95,74 %
14.03.2026 19:46 4,0 °C 2,8 °C -0,6 °C 94 % 1007,2 hPa 0,0 l/m² 0 min 0 W/m² 0,0 km/h (0 Bft) 95,74 %
14.03.2026 19:48 4,0 °C 2,8 °C 0,0 °C 94 % 1007,2 hPa 0,0 l/m² 0 min 0 W/m² 0,0 km/h (0 Bft) 91,49 %
14.03.2026 19:50 4,0 °C 2,8 °C 0,0 °C 94 % 1007,2 hPa 0,0 l/m² 0 min 0 W/m² 0,0 km/h (0 Bft) 95,65 %
14.03.2026 19:52 4,0 °C 3,3 °C 0,0 °C 94 % 1007,2 hPa 0,0 l/m² 0 min 0 W/m² 0,0 km/h (0 Bft) 95,74 %
14.03.2026 19:54 4,0 °C 3,3 °C 0,0 °C 94 % 1007,3 hPa 0,0 l/m² 0 min 0 W/m² 0,0 km/h (0 Bft) 95,74 %
14.03.2026 19:56 4,0 °C 3,3 °C 0,0 °C 94 % 1007,3 hPa 0,0 l/m² 0 min 0 W/m² 0,0 km/h (0 Bft) 95,74 %
14.03.2026 19:58 4,0 °C 3,3 °C 0,0 °C 94 % 1007,4 hPa 0,0 l/m² 0 min 0 W/m² 0,0 km/h (0 Bft) 95,74 %
14.03.2026 20:00 4,0 °C 3,3 °C 0,0 °C 95 % 1007,4 hPa 0,0 l/m² 0 min 0 W/m² 0,0 km/h (0 Bft) 97,83 %
14.03.2026 20:02 4,1 °C 3,3 °C 0,0 °C 95 % 1007,4 hPa 0,0 l/m² 0 min 0 W/m² 0,0 km/h (0 Bft) 97,87 %
14.03.2026 20:04 4,1 °C 3,3 °C 0,0 °C 95 % 1007,4 hPa 0,0 l/m² 0 min 0 W/m² 0,0 km/h (0 Bft) 95,92 %
14.03.2026 20:06 4,0 °C 3,3 °C 0,0 °C 95 % 1007,3 hPa 0,0 l/m² 0 min 0 W/m² 0,0 km/h (0 Bft) 95,74 %
14.03.2026 20:08 4,0 °C 3,3 °C 0,0 °C 95 % 1007,4 hPa 0,0 l/m² 0 min 0 W/m² 0,0 km/h (0 Bft) 95,74 %
14.03.2026 20:10 4,0 °C 2,8 °C 0,0 °C 95 % 1007,3 hPa 0,0 l/m² 0 min 0 W/m² 0,0 km/h (0 Bft) 97,14 %
14.03.2026 20:12 4,0 °C 2,8 °C 0,0 °C 95 % 1007,4 hPa 0,0 l/m² 0 min 0 W/m² 0,0 km/h (0 Bft) 97,87 %
14.03.2026 20:14 4,0 °C 2,8 °C 0,0 °C 95 % 1007,5 hPa 0,0 l/m² 0 min 0 W/m² 0,0 km/h (0 Bft) 97,87 %
14.03.2026 20:16 3,9 °C 2,8 °C 0,0 °C 95 % 1007,5 hPa 0,0 l/m² 0 min 0 W/m² 0,0 km/h (0 Bft) 97,83 %
14.03.2026 20:18 3,9 °C 2,8 °C -0,6 °C 95 % 1007,5 hPa 0,0 l/m² 0 min 0 W/m² 0,0 km/h (0 Bft) 97,87 %
14.03.2026 20:20 3,9 °C 2,8 °C -0,6 °C 95 % 1007,5 hPa 0,0 l/m² 0 min 0 W/m² 0,0 km/h (0 Bft) 95,74 %
14.03.2026 20:22 3,9 °C 2,8 °C -0,6 °C 95 % 1007,5 hPa 0,0 l/m² 0 min 0 W/m² 0,0 km/h (0 Bft) 100,00 %
14.03.2026 20:24 3,8 °C 2,8 °C -0,6 °C 95 % 1007,6 hPa 0,0 l/m² 0 min 0 W/m² 0,0 km/h (0 Bft) 97,87 %
14.03.2026 20:26 3,8 °C 2,8 °C -0,6 °C 95 % 1007,6 hPa 0,0 l/m² 0 min 0 W/m² 0,0 km/h (0 Bft) 97,87 %
14.03.2026 20:28 3,8 °C 2,2 °C -0,6 °C 95 % 1007,6 hPa 0,0 l/m² 0 min 0 W/m² 0,0 km/h (0 Bft) 95,65 %
14.03.2026 20:30 3,7 °C 2,2 °C -0,6 °C 95 % 1007,6 hPa 0,0 l/m² 0 min 0 W/m² 0,0 km/h (0 Bft) 95,74 %
14.03.2026 20:32 3,7 °C 2,2 °C -0,6 °C 95 % 1007,6 hPa 0,0 l/m² 0 min 0 W/m² 0,0 km/h (0 Bft) 95,74 %
14.03.2026 20:34 3,7 °C 2,2 °C -0,6 °C 95 % 1007,7 hPa 0,0 l/m² 0 min 0 W/m² 0,0 km/h (0 Bft) 97,87 %
14.03.2026 20:36 3,7 °C 2,2 °C -0,6 °C 95 % 1007,8 hPa 0,0 l/m² 0 min 0 W/m² 0,0 km/h (0 Bft) 97,87 %
14.03.2026 20:38 3,6 °C 2,2 °C -0,6 °C 95 % 1007,8 hPa 0,0 l/m² 0 min 0 W/m² 0,0 km/h (0 Bft) 97,83 %
14.03.2026 20:40 3,6 °C 2,8 °C -0,6 °C 95 % 1007,9 hPa 0,0 l/m² 0 min 0 W/m² 0,0 km/h (0 Bft) 97,87 %
14.03.2026 20:42 3,6 °C 2,8 °C -0,6 °C 95 % 1007,8 hPa 0,0 l/m² 0 min 0 W/m² 0,0 km/h (0 Bft) 97,87 %
14.03.2026 20:44 3,6 °C 2,8 °C -0,6 °C 95 % 1007,9 hPa 0,0 l/m² 0 min 0 W/m² 0,0 km/h (0 Bft) 97,87 %
14.03.2026 20:46 3,6 °C 2,8 °C -0,6 °C 95 % 1007,9 hPa 0,0 l/m² 0 min 0 W/m² 0,0 km/h (0 Bft) 95,74 %
14.03.2026 20:48 3,6 °C 2,8 °C 0,0 °C 95 % 1007,9 hPa 0,0 l/m² 0 min 0 W/m² 0,0 km/h (0 Bft) 95,74 %
14.03.2026 20:50 3,7 °C 2,8 °C 0,0 °C 95 % 1007,8 hPa 0,0 l/m² 0 min 0 W/m² 0,0 km/h (0 Bft) 97,83 %
14.03.2026 20:52 3,7 °C 2,8 °C 0,0 °C 95 % 1007,9 hPa 0,0 l/m² 0 min 0 W/m² 0,0 km/h (0 Bft) 97,87 %
14.03.2026 20:54 3,7 °C 2,8 °C -0,6 °C 95 % 1007,9 hPa 0,0 l/m² 0 min 0 W/m² 0,0 km/h (0 Bft) 95,74 %
14.03.2026 20:56 3,7 °C 2,8 °C -0,6 °C 95 % 1007,9 hPa 0,0 l/m² 0 min 0 W/m² 0,0 km/h (0 Bft) 97,87 %
14.03.2026 20:58 3,7 °C 2,8 °C 0,0 °C 95 % 1007,9 hPa 0,0 l/m² 0 min 0 W/m² 0,0 km/h (0 Bft) 97,87 %
14.03.2026 21:00 3,7 °C 2,8 °C 0,0 °C 95 % 1008,0 hPa 0,0 l/m² 0 min 0 W/m² 0,0 km/h (0 Bft) 97,87 %
14.03.2026 21:02 3,8 °C 3,3 °C 0,0 °C 95 % 1008,0 hPa 0,0 l/m² 0 min 0 W/m² 0,0 km/h (0 Bft) 95,65 %
14.03.2026 21:04 3,8 °C 3,3 °C 0,0 °C 95 % 1008,0 hPa 0,0 l/m² 0 min 0 W/m² 0,0 km/h (0 Bft) 95,92 %
14.03.2026 21:06 3,8 °C 3,3 °C 0,0 °C 95 % 1008,0 hPa 0,0 l/m² 0 min 0 W/m² 0,0 km/h (0 Bft) 96,61 %
14.03.2026 21:08 3,8 °C 3,3 °C 0,0 °C 95 % 1008,0 hPa 0,0 l/m² 0 min 0 W/m² 0,0 km/h (0 Bft) 95,74 %
14.03.2026 21:10 3,8 °C 3,3 °C 0,0 °C 96 % 1008,1 hPa 0,0 l/m² 0 min 0 W/m² 0,0 km/h (0 Bft) 94,29 %
14.03.2026 21:12 3,8 °C 2,8 °C 0,0 °C 96 % 1008,1 hPa 0,0 l/m² 0 min 0 W/m² 0,0 km/h (0 Bft) 95,74 %
14.03.2026 21:14 3,8 °C 2,8 °C 0,0 °C 96 % 1008,2 hPa 0,0 l/m² 0 min 0 W/m² 0,0 km/h (0 Bft) 95,65 %
14.03.2026 21:16 3,8 °C 2,8 °C -0,6 °C 96 % 1008,2 hPa 0,0 l/m² 0 min 0 W/m² 0,0 km/h (0 Bft) 93,62 %
14.03.2026 21:18 3,8 °C 2,8 °C -0,6 °C 96 % 1008,2 hPa 0,0 l/m² 0 min 0 W/m² 0,0 km/h (0 Bft) 97,87 %
14.03.2026 21:20 3,7 °C 2,8 °C -0,6 °C 96 % 1008,2 hPa 0,0 l/m² 0 min 0 W/m² 0,0 km/h (0 Bft) 95,74 %
14.03.2026 21:22 3,7 °C 2,8 °C -0,6 °C 96 % 1008,2 hPa 0,0 l/m² 0 min 0 W/m² 0,0 km/h (0 Bft) 97,87 %
14.03.2026 21:24 3,7 °C 2,8 °C -0,6 °C 96 % 1008,2 hPa 0,0 l/m² 0 min 0 W/m² 0,0 km/h (0 Bft) 97,87 %
14.03.2026 21:26 3,7 °C 2,8 °C -0,6 °C 96 % 1008,4 hPa 0,0 l/m² 0 min 0 W/m² 0,0 km/h (0 Bft) 97,83 %
14.03.2026 21:28 3,6 °C 2,2 °C -0,6 °C 96 % 1008,4 hPa 0,0 l/m² 0 min 0 W/m² 0,0 km/h (0 Bft) 98,18 %
14.03.2026 21:30 3,6 °C 2,2 °C -0,6 °C 96 % 1008,4 hPa 0,0 l/m² 0 min 0 W/m² 0,0 km/h (0 Bft) 95,92 %
14.03.2026 21:32 3,6 °C 2,2 °C -0,6 °C 96 % 1008,4 hPa 0,0 l/m² 0 min 0 W/m² 0,0 km/h (0 Bft) 97,30 %
14.03.2026 21:34 3,6 °C 2,2 °C -0,6 °C 96 % 1008,4 hPa 0,0 l/m² 0 min 0 W/m² 0,0 km/h (0 Bft) 97,87 %
14.03.2026 21:36 3,5 °C 2,2 °C -0,6 °C 96 % 1008,5 hPa 0,0 l/m² 0 min 0 W/m² 0,0 km/h (0 Bft) 98,15 %
14.03.2026 21:38 3,5 °C 2,8 °C -0,6 °C 96 % 1008,5 hPa 0,0 l/m² 0 min 0 W/m² 0,0 km/h (0 Bft) 96,00 %
14.03.2026 21:40 3,4 °C 2,8 °C -0,6 °C 96 % 1008,6 hPa 0,0 l/m² 0 min 0 W/m² 0,0 km/h (0 Bft) 100,00 %
14.03.2026 21:42 3,4 °C 2,8 °C -0,6 °C 96 % 1008,6 hPa 0,0 l/m² 0 min 0 W/m² 0,0 km/h (0 Bft) 95,74 %
14.03.2026 21:44 3,4 °C 2,8 °C -0,6 °C 96 % 1008,6 hPa 0,0 l/m² 0 min 0 W/m² 0,0 km/h (0 Bft) 98,15 %
14.03.2026 21:46 3,4 °C 2,8 °C -0,6 °C 96 % 1008,6 hPa 0,0 l/m² 0 min 0 W/m² 0,0 km/h (0 Bft) 98,00 %
14.03.2026 21:48 3,4 °C 2,8 °C -0,6 °C 96 % 1008,6 hPa 0,0 l/m² 0 min 0 W/m² 0,0 km/h (0 Bft) 97,22 %
14.03.2026 21:50 3,4 °C 2,8 °C -0,6 °C 96 % 1008,6 hPa 0,0 l/m² 0 min 0 W/m² 0,0 km/h (0 Bft) 97,87 %
14.03.2026 21:52 3,4 °C 2,8 °C -0,6 °C 96 % 1008,7 hPa 0,0 l/m² 0 min 0 W/m² 0,0 km/h (0 Bft) 100,00 %
14.03.2026 21:54 3,4 °C 2,8 °C -0,6 °C 96 % 1008,7 hPa 0,0 l/m² 0 min 0 W/m² 0,0 km/h (0 Bft) 96,00 %
14.03.2026 21:56 3,4 °C 2,8 °C -0,6 °C 96 % 1008,7 hPa 0,0 l/m² 0 min 0 W/m² 0,0 km/h (0 Bft) 35,48 %
14.03.2026 21:58 3,4 °C 2,8 °C -0,6 °C 96 % 1008,7 hPa 0,0 l/m² 0 min 0 W/m² 0,0 km/h (0 Bft) 97,87 %
14.03.2026 22:00 3,4 °C 2,8 °C -0,6 °C 96 % 1008,7 hPa 0,0 l/m² 0 min 0 W/m² 0,0 km/h (0 Bft) 94,44 %
14.03.2026 22:02 3,4 °C 2,8 °C -0,6 °C 96 % 1008,8 hPa 0,0 l/m² 0 min 0 W/m² 0,0 km/h (0 Bft) 93,62 %
14.03.2026 22:04 3,4 °C 2,8 °C -0,6 °C 96 % 1008,8 hPa 0,0 l/m² 0 min 0 W/m² 0,0 km/h (0 Bft) 97,96 %
14.03.2026 22:06 3,4 °C 2,8 °C -0,6 °C 96 % 1008,9 hPa 0,0 l/m² 0 min 0 W/m² 0,0 km/h (0 Bft) 98,00 %
14.03.2026 22:08 3,4 °C 2,8 °C 0,0 °C 96 % 1008,9 hPa 0,0 l/m² 0 min 0 W/m² 0,0 km/h (0 Bft) 97,87 %
14.03.2026 22:10 3,4 °C 2,8 °C -0,6 °C 96 % 1009,0 hPa 0,0 l/m² 0 min 0 W/m² 0,0 km/h (0 Bft) 97,14 %
14.03.2026 22:12 3,5 °C 2,8 °C -0,6 °C 96 % 1009,0 hPa 0,0 l/m² 0 min 0 W/m² 0,0 km/h (0 Bft) 95,74 %
14.03.2026 22:14 3,5 °C 2,8 °C -0,6 °C 96 % 1009,0 hPa 0,0 l/m² 0 min 0 W/m² 0,0 km/h (0 Bft) 97,87 %
14.03.2026 22:16 3,5 °C 2,8 °C -0,6 °C 96 % 1009,0 hPa 0,0 l/m² 0 min 0 W/m² 0,0 km/h (0 Bft) 97,87 %
14.03.2026 22:18 3,5 °C 2,8 °C -0,6 °C 96 % 1009,0 hPa 0,0 l/m² 0 min 0 W/m² 0,0 km/h (0 Bft) 95,74 %
14.03.2026 22:20 3,5 °C 2,8 °C 0,0 °C 96 % 1009,0 hPa 0,0 l/m² 0 min 0 W/m² 0,0 km/h (0 Bft) 98,18 %
14.03.2026 22:22 3,5 °C 2,8 °C 0,0 °C 96 % 1009,0 hPa 0,0 l/m² 0 min 0 W/m² 0,0 km/h (0 Bft) 97,37 %
14.03.2026 22:24 3,5 °C 2,8 °C -0,6 °C 96 % 1009,1 hPa 0,0 l/m² 0 min 0 W/m² 0,0 km/h (0 Bft) 97,87 %
14.03.2026 22:26 3,5 °C 2,8 °C -0,6 °C 96 % 1009,1 hPa 0,0 l/m² 0 min 0 W/m² 0,0 km/h (0 Bft) 97,87 %
14.03.2026 22:28 3,5 °C 2,8 °C -0,6 °C 96 % 1009,1 hPa 0,0 l/m² 0 min 0 W/m² 0,0 km/h (0 Bft) 95,74 %
14.03.2026 22:30 3,6 °C 2,8 °C -0,6 °C 96 % 1009,1 hPa 0,0 l/m² 0 min 0 W/m² 0,0 km/h (0 Bft) 98,18 %
14.03.2026 22:32 3,5 °C 2,8 °C -0,6 °C 96 % 1009,2 hPa 0,0 l/m² 0 min 0 W/m² 0,0 km/h (0 Bft) 97,87 %
14.03.2026 22:34 3,5 °C 2,8 °C -0,6 °C 96 % 1009,2 hPa 0,0 l/m² 0 min 0 W/m² 0,0 km/h (0 Bft) 100,00 %
14.03.2026 22:36 3,5 °C 2,8 °C -0,6 °C 96 % 1009,3 hPa 0,0 l/m² 0 min 0 W/m² 0,0 km/h (0 Bft) 100,00 %
14.03.2026 22:38 3,5 °C 2,8 °C -0,6 °C 96 % 1009,3 hPa 0,0 l/m² 0 min 0 W/m² 0,0 km/h (0 Bft) 100,00 %
14.03.2026 22:40 3,5 °C 2,8 °C -0,6 °C 96 % 1009,3 hPa 0,0 l/m² 0 min 0 W/m² 0,0 km/h (0 Bft) 97,83 %
14.03.2026 22:42 3,5 °C 2,8 °C -0,6 °C 96 % 1009,3 hPa 0,0 l/m² 0 min 0 W/m² 0,0 km/h (0 Bft) 100,00 %
14.03.2026 22:44 3,4 °C 2,8 °C -0,6 °C 96 % 1009,4 hPa 0,0 l/m² 0 min 0 W/m² 0,0 km/h (0 Bft) 97,87 %
14.03.2026 22:46 3,4 °C 2,8 °C -0,6 °C 96 % 1009,4 hPa 0,0 l/m² 0 min 0 W/m² 0,0 km/h (0 Bft) 100,00 %
14.03.2026 22:48 3,4 °C 2,2 °C -0,6 °C 96 % 1009,4 hPa 0,0 l/m² 0 min 0 W/m² 0,0 km/h (0 Bft) 95,74 %
14.03.2026 22:50 3,4 °C 2,2 °C -0,6 °C 96 % 1009,5 hPa 0,0 l/m² 0 min 0 W/m² 0,0 km/h (0 Bft) 100,00 %
14.03.2026 22:52 3,4 °C 2,2 °C -0,6 °C 96 % 1009,5 hPa 0,0 l/m² 0 min 0 W/m² 0,0 km/h (0 Bft) 100,00 %
14.03.2026 22:54 3,3 °C 2,2 °C -1,1 °C 96 % 1009,6 hPa 0,0 l/m² 0 min 0 W/m² 0,0 km/h (0 Bft) 97,87 %
14.03.2026 22:56 3,3 °C 2,2 °C -1,1 °C 96 % 1009,6 hPa 0,0 l/m² 0 min 0 W/m² 0,0 km/h (0 Bft) 97,87 %
14.03.2026 22:58 3,3 °C 2,2 °C -1,1 °C 96 % 1009,6 hPa 0,0 l/m² 0 min 0 W/m² 0,0 km/h (0 Bft) 97,87 %
14.03.2026 23:00 3,2 °C 2,2 °C -1,1 °C 96 % 1009,7 hPa 0,0 l/m² 0 min 0 W/m² 0,0 km/h (0 Bft) 97,87 %
14.03.2026 23:02 3,2 °C 2,2 °C -1,1 °C 96 % 1009,6 hPa 0,0 l/m² 0 min 0 W/m² 0,0 km/h (0 Bft) 97,83 %
14.03.2026 23:04 3,2 °C 2,2 °C -1,1 °C 96 % 1009,6 hPa 0,0 l/m² 0 min 0 W/m² 0,0 km/h (0 Bft) 97,87 %
14.03.2026 23:06 3,1 °C 1,7 °C -1,1 °C 96 % 1009,7 hPa 0,0 l/m² 0 min 0 W/m² 0,0 km/h (0 Bft) 95,74 %
14.03.2026 23:08 3,1 °C 1,7 °C -1,1 °C 96 % 1009,7 hPa 0,0 l/m² 0 min 0 W/m² 0,0 km/h (0 Bft) 95,83 %
14.03.2026 23:10 3,1 °C 1,7 °C -1,1 °C 96 % 1009,7 hPa 0,0 l/m² 0 min 0 W/m² 0,0 km/h (0 Bft) 97,87 %
14.03.2026 23:12 3,0 °C 1,7 °C -1,1 °C 96 % 1009,7 hPa 0,0 l/m² 0 min 0 W/m² 0,0 km/h (0 Bft) 97,87 %
14.03.2026 23:14 3,0 °C 1,7 °C -1,1 °C 96 % 1009,8 hPa 0,0 l/m² 0 min 0 W/m² 0,0 km/h (0 Bft) 97,83 %
14.03.2026 23:16 2,9 °C 1,7 °C -1,1 °C 96 % 1009,8 hPa 0,0 l/m² 0 min 0 W/m² 0,0 km/h (0 Bft) 97,87 %
14.03.2026 23:18 2,9 °C 1,7 °C -1,1 °C 96 % 1009,8 hPa 0,0 l/m² 0 min 0 W/m² 0,0 km/h (0 Bft) 95,74 %
14.03.2026 23:20 2,9 °C 1,7 °C -1,1 °C 96 % 1009,8 hPa 0,0 l/m² 0 min 0 W/m² 0,0 km/h (0 Bft) 97,87 %
14.03.2026 23:22 2,9 °C 1,7 °C -1,1 °C 96 % 1009,9 hPa 0,0 l/m² 0 min 0 W/m² 0,0 km/h (0 Bft) 97,87 %
14.03.2026 23:24 2,9 °C 1,7 °C -1,1 °C 96 % 1009,9 hPa 0,0 l/m² 0 min 0 W/m² 0,0 km/h (0 Bft) 100,00 %
14.03.2026 23:26 2,8 °C 1,7 °C -1,1 °C 96 % 1009,9 hPa 0,0 l/m² 0 min 0 W/m² 0,0 km/h (0 Bft) 100,00 %
14.03.2026 23:28 2,8 °C 1,7 °C -1,1 °C 96 % 1009,9 hPa 0,0 l/m² 0 min 0 W/m² 0,0 km/h (0 Bft) 97,87 %
14.03.2026 23:30 2,8 °C 2,2 °C -1,1 °C 96 % 1010,0 hPa 0,0 l/m² 0 min 0 W/m² 0,0 km/h (0 Bft) 100,00 %
14.03.2026 23:32 2,8 °C 2,2 °C -1,1 °C 96 % 1010,0 hPa 0,0 l/m² 0 min 0 W/m² 0,0 km/h (0 Bft) 97,87 %
14.03.2026 23:34 2,8 °C 2,2 °C -1,1 °C 96 % 1010,0 hPa 0,0 l/m² 0 min 0 W/m² 0,0 km/h (0 Bft) 97,87 %
14.03.2026 23:36 2,8 °C 2,2 °C -1,1 °C 96 % 1010,0 hPa 0,0 l/m² 0 min 0 W/m² 6,4 km/h (2 Bft) 100,00 %
14.03.2026 23:38 2,8 °C 2,2 °C -1,1 °C 96 % 1010,0 hPa 0,0 l/m² 0 min 0 W/m² 3,2 km/h (1 Bft) 97,83 %
14.03.2026 23:40 2,8 °C 2,2 °C -0,6 °C 97 % 1010,0 hPa 0,0 l/m² 0 min 0 W/m² 3,2 km/h (1 Bft) 97,87 %
14.03.2026 23:42 2,9 °C 2,2 °C -0,6 °C 97 % 1010,0 hPa 0,0 l/m² 0 min 0 W/m² 0,0 km/h (0 Bft) 100,00 %
14.03.2026 23:44 2,9 °C 2,2 °C -0,6 °C 97 % 1010,0 hPa 0,0 l/m² 0 min 0 W/m² 0,0 km/h (0 Bft) 100,00 %
14.03.2026 23:46 2,9 °C 2,2 °C -0,6 °C 97 % 1010,0 hPa 0,0 l/m² 0 min 0 W/m² 0,0 km/h (0 Bft) 97,87 %
14.03.2026 23:48 3,0 °C 2,2 °C -0,6 °C 97 % 1010,0 hPa 0,0 l/m² 0 min 0 W/m² 3,2 km/h (1 Bft) 97,87 %
14.03.2026 23:50 3,0 °C 2,2 °C -0,6 °C 97 % 1010,1 hPa 0,0 l/m² 0 min 0 W/m² 0,0 km/h (0 Bft) 97,83 %
14.03.2026 23:52 3,1 °C 2,2 °C -0,6 °C 97 % 1010,1 hPa 0,0 l/m² 0 min 0 W/m² 3,2 km/h (1 Bft) 95,74 %
14.03.2026 23:54 3,1 °C 2,2 °C -0,6 °C 97 % 1010,1 hPa 0,0 l/m² 0 min 0 W/m² 3,2 km/h (1 Bft) 97,87 %
14.03.2026 23:56 3,1 °C 2,8 °C -0,6 °C 97 % 1010,2 hPa 0,0 l/m² 0 min 0 W/m² 6,4 km/h (2 Bft) 97,87 %
14.03.2026 23:58 3,1 °C 2,8 °C -0,6 °C 97 % 1010,2 hPa 0,0 l/m² 0 min 0 W/m² 3,2 km/h (1 Bft) 95,74 %
_ Min-Zeit 11:06 23:06 09:50 19:12 05:26 - - - 02:10 21:56
Minimum _ 2,7 °C 1,7 °C -1,1 °C 93 % 999,6 hPa - - - 0,0 km/h (0 Bft) 35,48 %
_ Max-Zeit 17:12 17:02 17:02 02:02 23:56 01:06 14:44 14:44 14:34 00:02
Maximum _ 5,4 °C 6,7 °C 1,7 °C 97 % 1010,2 hPa 0,2 l/m² 2 min 260 W/m² 19,3 km/h
N-NW (3 Bft)
100,00 %
Durchschnitt _ 3,9 °C 3,4 °C -0,0 °C 96 % 1003,2 hPa #11,3 l/m² #1:10 h 99 W/m² 4,1 km/h (1 Bft) 97,05 %
© 2026 W. Hausmann